<?xml version="1.0" encoding="UTF-8" standalone="no" ?>
<gpx xmlns="http://www.topografix.com/GPX/1/1" xmlns:xsi="http://www.w3.org/2001/XMLSchema-instance" xsi:schemaLocation="http://www.topografix.com/GPX/1/1 http://www.topografix.com/GPX/1/1/gpx.xsd" version="1.1" creator="VisuGPX - https://www.visugpx.com">
  <metadata>
    <name>Trek Ecrins </name>
    <desc><![CDATA[Trek de 3 jours au départ des Andrieux vers le refuge des Souffles le premier jour. Puis col de Colombe et refuge de l'Olan le second jour. Retour aux Andrieux le dernier jour.]]></desc>
  </metadata>
  <wpt lat="44.82057" lon="6.16584">
    <ele>1046</ele>
    <name><![CDATA[Arrivée]]></name>
    <desc><![CDATA[La Chapelle-En-Valgaudémar]]></desc>
    <cmt><![CDATA[La Chapelle-En-Valgaudémar]]></cmt>
  </wpt>
  <wpt lat="44.82066" lon="6.16601">
    <ele>1046.6</ele>
    <name><![CDATA[Départ]]></name>
    <desc><![CDATA[parking]]></desc>
    <cmt><![CDATA[parking]]></cmt>
  </wpt>
  <wpt lat="44.84147" lon="6.20453">
    <ele>2338.8</ele>
    <name><![CDATA[Refuge de L'Ol]]></name>
    <desc><![CDATA[Refuge de L'Olan]]></desc>
    <cmt><![CDATA[Refuge de L'Olan]]></cmt>
  </wpt>
  <wpt lat="44.84467" lon="6.14653">
    <ele>1968.5</ele>
    <name><![CDATA[Refuge Des Sou]]></name>
    <desc><![CDATA[Refuge Des Souffles]]></desc>
    <cmt><![CDATA[Refuge Des Souffles]]></cmt>
  </wpt>
  <trk>
    <name><![CDATA[Jour 2]]></name>
    <trkseg>
      <trkpt lat="44.84471" lon="6.14654">
        <ele>1951.1330566406</ele>
        <time>2020-08-15T06:48:51Z</time>
      </trkpt>
      <trkpt lat="44.84475" lon="6.14646">
        <ele>1969.8786621094</ele>
        <time>2020-08-15T06:49:32Z</time>
      </trkpt>
      <trkpt lat="44.84471" lon="6.14651">
        <ele>1969.8786621094</ele>
        <time>2020-08-15T06:50:40Z</time>
      </trkpt>
      <trkpt lat="44.84474" lon="6.14653">
        <ele>1969.8786621094</ele>
        <time>2020-08-15T06:51:06Z</time>
      </trkpt>
      <trkpt lat="44.84474" lon="6.1466">
        <ele>1970.8400878906</ele>
        <time>2020-08-15T06:51:19Z</time>
      </trkpt>
      <trkpt lat="44.84476" lon="6.14666">
        <ele>1975.1657714844</ele>
        <time>2020-08-15T06:51:35Z</time>
      </trkpt>
      <trkpt lat="44.84485" lon="6.1468">
        <ele>1979.4916992188</ele>
        <time>2020-08-15T06:52:01Z</time>
      </trkpt>
      <trkpt lat="44.8449" lon="6.14694">
        <ele>1981.8952636719</ele>
        <time>2020-08-15T06:52:20Z</time>
      </trkpt>
      <trkpt lat="44.84494" lon="6.14703">
        <ele>1984.779296875</ele>
        <time>2020-08-15T06:52:38Z</time>
      </trkpt>
      <trkpt lat="44.84493" lon="6.14716">
        <ele>1987.1823730469</ele>
        <time>2020-08-15T06:52:57Z</time>
      </trkpt>
      <trkpt lat="44.84491" lon="6.14724">
        <ele>1991.5083007812</ele>
        <time>2020-08-15T06:53:14Z</time>
      </trkpt>
      <trkpt lat="44.84489" lon="6.14734">
        <ele>1992.9501953125</ele>
        <time>2020-08-15T06:53:31Z</time>
      </trkpt>
      <trkpt lat="44.84488" lon="6.14744">
        <ele>1995.8342285156</ele>
        <time>2020-08-15T06:53:49Z</time>
      </trkpt>
      <trkpt lat="44.84486" lon="6.14755">
        <ele>1994.8728027344</ele>
        <time>2020-08-15T06:54:09Z</time>
      </trkpt>
      <trkpt lat="44.84482" lon="6.14771">
        <ele>1995.353515625</ele>
        <time>2020-08-15T06:54:29Z</time>
      </trkpt>
      <trkpt lat="44.8448" lon="6.1478">
        <ele>1997.7570800781</ele>
        <time>2020-08-15T06:54:47Z</time>
      </trkpt>
      <trkpt lat="44.84479" lon="6.14792">
        <ele>1999.1989746094</ele>
        <time>2020-08-15T06:55:08Z</time>
      </trkpt>
      <trkpt lat="44.84479" lon="6.14802">
        <ele>1999.6796875</ele>
        <time>2020-08-15T06:55:25Z</time>
      </trkpt>
      <trkpt lat="44.84477" lon="6.14817">
        <ele>2001.1215820312</ele>
        <time>2020-08-15T06:55:52Z</time>
      </trkpt>
      <trkpt lat="44.84477" lon="6.14829">
        <ele>2004.966796875</ele>
        <time>2020-08-15T06:56:09Z</time>
      </trkpt>
      <trkpt lat="44.84472" lon="6.1484">
        <ele>2007.8508300781</ele>
        <time>2020-08-15T06:56:31Z</time>
      </trkpt>
      <trkpt lat="44.84465" lon="6.14844">
        <ele>2005.4475097656</ele>
        <time>2020-08-15T06:56:51Z</time>
      </trkpt>
      <trkpt lat="44.84455" lon="6.14843">
        <ele>2004.966796875</ele>
        <time>2020-08-15T06:57:12Z</time>
      </trkpt>
      <trkpt lat="44.84455" lon="6.14849">
        <ele>2007.8508300781</ele>
        <time>2020-08-15T06:57:32Z</time>
      </trkpt>
      <trkpt lat="44.84458" lon="6.14866">
        <ele>2010.25390625</ele>
        <time>2020-08-15T06:57:57Z</time>
      </trkpt>
      <trkpt lat="44.84464" lon="6.14885">
        <ele>2014.0993652344</ele>
        <time>2020-08-15T06:58:25Z</time>
      </trkpt>
      <trkpt lat="44.84474" lon="6.14888">
        <ele>2016.9833984375</ele>
        <time>2020-08-15T06:58:40Z</time>
      </trkpt>
      <trkpt lat="44.84484" lon="6.14898">
        <ele>2020.8286132812</ele>
        <time>2020-08-15T06:59:05Z</time>
      </trkpt>
      <trkpt lat="44.84489" lon="6.14903">
        <ele>2023.7124023438</ele>
        <time>2020-08-15T06:59:25Z</time>
      </trkpt>
      <trkpt lat="44.84503" lon="6.14911">
        <ele>2026.5964355469</ele>
        <time>2020-08-15T06:59:44Z</time>
      </trkpt>
      <trkpt lat="44.84511" lon="6.14931">
        <ele>2030.4418945312</ele>
        <time>2020-08-15T07:00:13Z</time>
      </trkpt>
      <trkpt lat="44.84526" lon="6.14941">
        <ele>2034.287109375</ele>
        <time>2020-08-15T07:00:39Z</time>
      </trkpt>
      <trkpt lat="44.84534" lon="6.14952">
        <ele>2041.0161132812</ele>
        <time>2020-08-15T07:01:18Z</time>
      </trkpt>
      <trkpt lat="44.84549" lon="6.14964">
        <ele>2045.8229980469</ele>
        <time>2020-08-15T07:01:45Z</time>
      </trkpt>
      <trkpt lat="44.84558" lon="6.14968">
        <ele>2049.6682128906</ele>
        <time>2020-08-15T07:02:06Z</time>
      </trkpt>
      <trkpt lat="44.84565" lon="6.14972">
        <ele>2052.5520019531</ele>
        <time>2020-08-15T07:02:22Z</time>
      </trkpt>
      <trkpt lat="44.84572" lon="6.14977">
        <ele>2054.474609375</ele>
        <time>2020-08-15T07:02:40Z</time>
      </trkpt>
      <trkpt lat="44.8457" lon="6.14981">
        <ele>2050.1489257812</ele>
        <time>2020-08-15T07:03:02Z</time>
      </trkpt>
      <trkpt lat="44.84561" lon="6.14988">
        <ele>2049.6682128906</ele>
        <time>2020-08-15T07:03:23Z</time>
      </trkpt>
      <trkpt lat="44.84549" lon="6.14986">
        <ele>2052.5520019531</ele>
        <time>2020-08-15T07:03:46Z</time>
      </trkpt>
      <trkpt lat="44.84535" lon="6.14993">
        <ele>2057.3586425781</ele>
        <time>2020-08-15T07:04:08Z</time>
      </trkpt>
      <trkpt lat="44.84527" lon="6.15002">
        <ele>2059.76171875</ele>
        <time>2020-08-15T07:04:25Z</time>
      </trkpt>
      <trkpt lat="44.84523" lon="6.15015">
        <ele>2061.2041015625</ele>
        <time>2020-08-15T07:04:45Z</time>
      </trkpt>
      <trkpt lat="44.84515" lon="6.15022">
        <ele>2062.1652832031</ele>
        <time>2020-08-15T07:05:01Z</time>
      </trkpt>
      <trkpt lat="44.84509" lon="6.15021">
        <ele>2062.1652832031</ele>
        <time>2020-08-15T07:05:26Z</time>
      </trkpt>
      <trkpt lat="44.84501" lon="6.15032">
        <ele>2063.1267089844</ele>
        <time>2020-08-15T07:05:44Z</time>
      </trkpt>
      <trkpt lat="44.84495" lon="6.15043">
        <ele>2064.5686035156</ele>
        <time>2020-08-15T07:05:58Z</time>
      </trkpt>
      <trkpt lat="44.84487" lon="6.15056">
        <ele>2065.0493164062</ele>
        <time>2020-08-15T07:06:17Z</time>
      </trkpt>
      <trkpt lat="44.84478" lon="6.15075">
        <ele>2065.5300292969</ele>
        <time>2020-08-15T07:06:37Z</time>
      </trkpt>
      <trkpt lat="44.84471" lon="6.15091">
        <ele>2066.4912109375</ele>
        <time>2020-08-15T07:06:56Z</time>
      </trkpt>
      <trkpt lat="44.84488" lon="6.15095">
        <ele>2067.9331054688</ele>
        <time>2020-08-15T07:07:22Z</time>
      </trkpt>
      <trkpt lat="44.84497" lon="6.15091">
        <ele>2071.2976074219</ele>
        <time>2020-08-15T07:07:45Z</time>
      </trkpt>
      <trkpt lat="44.84511" lon="6.15096">
        <ele>2073.7009277344</ele>
        <time>2020-08-15T07:08:06Z</time>
      </trkpt>
      <trkpt lat="44.84525" lon="6.15097">
        <ele>2075.1428222656</ele>
        <time>2020-08-15T07:08:31Z</time>
      </trkpt>
      <trkpt lat="44.84543" lon="6.15093">
        <ele>2078.0270996094</ele>
        <time>2020-08-15T07:08:57Z</time>
      </trkpt>
      <trkpt lat="44.84555" lon="6.15091">
        <ele>2077.5463867188</ele>
        <time>2020-08-15T07:09:24Z</time>
      </trkpt>
      <trkpt lat="44.84555" lon="6.1509">
        <ele>2078.98828125</ele>
        <time>2020-08-15T07:10:17Z</time>
      </trkpt>
      <trkpt lat="44.84556" lon="6.15092">
        <ele>2078.5078125</ele>
        <time>2020-08-15T07:10:35Z</time>
      </trkpt>
      <trkpt lat="44.84568" lon="6.15092">
        <ele>2079.9497070312</ele>
        <time>2020-08-15T07:10:55Z</time>
      </trkpt>
      <trkpt lat="44.84583" lon="6.15071">
        <ele>2096.7727050781</ele>
        <time>2020-08-15T07:11:18Z</time>
      </trkpt>
      <trkpt lat="44.84585" lon="6.15072">
        <ele>2102.5405273438</ele>
        <time>2020-08-15T07:11:36Z</time>
      </trkpt>
      <trkpt lat="44.84583" lon="6.15086">
        <ele>2105.4245605469</ele>
        <time>2020-08-15T07:11:55Z</time>
      </trkpt>
      <trkpt lat="44.8458" lon="6.15107">
        <ele>2107.3471679688</ele>
        <time>2020-08-15T07:12:23Z</time>
      </trkpt>
      <trkpt lat="44.84574" lon="6.1511">
        <ele>2108.30859375</ele>
        <time>2020-08-15T07:12:45Z</time>
      </trkpt>
      <trkpt lat="44.84569" lon="6.15123">
        <ele>2111.6733398438</ele>
        <time>2020-08-15T07:14:39Z</time>
      </trkpt>
      <trkpt lat="44.84558" lon="6.15135">
        <ele>2112.1538085938</ele>
        <time>2020-08-15T07:15:01Z</time>
      </trkpt>
      <trkpt lat="44.84554" lon="6.15145">
        <ele>2112.1538085938</ele>
        <time>2020-08-15T07:15:19Z</time>
      </trkpt>
      <trkpt lat="44.84565" lon="6.1515">
        <ele>2112.1538085938</ele>
        <time>2020-08-15T07:15:41Z</time>
      </trkpt>
      <trkpt lat="44.84576" lon="6.15149">
        <ele>2112.6345214844</ele>
        <time>2020-08-15T07:16:03Z</time>
      </trkpt>
      <trkpt lat="44.84588" lon="6.1515">
        <ele>2115.9990234375</ele>
        <time>2020-08-15T07:16:28Z</time>
      </trkpt>
      <trkpt lat="44.84595" lon="6.15151">
        <ele>2118.8830566406</ele>
        <time>2020-08-15T07:16:53Z</time>
      </trkpt>
      <trkpt lat="44.84593" lon="6.15158">
        <ele>2120.3249511719</ele>
        <time>2020-08-15T07:17:10Z</time>
      </trkpt>
      <trkpt lat="44.84582" lon="6.15171">
        <ele>2121.7668457031</ele>
        <time>2020-08-15T07:17:36Z</time>
      </trkpt>
      <trkpt lat="44.84578" lon="6.15181">
        <ele>2122.2475585938</ele>
        <time>2020-08-15T07:17:51Z</time>
      </trkpt>
      <trkpt lat="44.84572" lon="6.15196">
        <ele>2124.6511230469</ele>
        <time>2020-08-15T07:18:11Z</time>
      </trkpt>
      <trkpt lat="44.84565" lon="6.15213">
        <ele>2126.5737304688</ele>
        <time>2020-08-15T07:18:38Z</time>
      </trkpt>
      <trkpt lat="44.84557" lon="6.15233">
        <ele>2130.4189453125</ele>
        <time>2020-08-15T07:19:06Z</time>
      </trkpt>
      <trkpt lat="44.84555" lon="6.15241">
        <ele>2134.7448730469</ele>
        <time>2020-08-15T07:19:44Z</time>
      </trkpt>
      <trkpt lat="44.84565" lon="6.15237">
        <ele>2139.5512695312</ele>
        <time>2020-08-15T07:20:04Z</time>
      </trkpt>
      <trkpt lat="44.84589" lon="6.15227">
        <ele>2153.9711914062</ele>
        <time>2020-08-15T07:20:48Z</time>
      </trkpt>
      <trkpt lat="44.84589" lon="6.15229">
        <ele>2153.009765625</ele>
        <time>2020-08-15T07:21:08Z</time>
      </trkpt>
      <trkpt lat="44.84581" lon="6.15245">
        <ele>2152.5290527344</ele>
        <time>2020-08-15T07:21:35Z</time>
      </trkpt>
      <trkpt lat="44.84572" lon="6.15259">
        <ele>2152.5290527344</ele>
        <time>2020-08-15T07:21:57Z</time>
      </trkpt>
      <trkpt lat="44.84562" lon="6.15273">
        <ele>2156.8552246094</ele>
        <time>2020-08-15T07:22:21Z</time>
      </trkpt>
      <trkpt lat="44.84553" lon="6.15291">
        <ele>2160.7004394531</ele>
        <time>2020-08-15T07:22:44Z</time>
      </trkpt>
      <trkpt lat="44.84548" lon="6.15304">
        <ele>2164.5456542969</ele>
        <time>2020-08-15T07:23:07Z</time>
      </trkpt>
      <trkpt lat="44.84545" lon="6.15314">
        <ele>2168.8715820312</ele>
        <time>2020-08-15T07:23:30Z</time>
      </trkpt>
      <trkpt lat="44.84537" lon="6.15329">
        <ele>2170.7941894531</ele>
        <time>2020-08-15T07:23:56Z</time>
      </trkpt>
      <trkpt lat="44.84528" lon="6.15343">
        <ele>2172.7170410156</ele>
        <time>2020-08-15T07:24:18Z</time>
      </trkpt>
      <trkpt lat="44.84516" lon="6.15354">
        <ele>2175.6008300781</ele>
        <time>2020-08-15T07:24:40Z</time>
      </trkpt>
      <trkpt lat="44.84507" lon="6.15359">
        <ele>2179.4460449219</ele>
        <time>2020-08-15T07:25:03Z</time>
      </trkpt>
      <trkpt lat="44.84498" lon="6.15367">
        <ele>2182.810546875</ele>
        <time>2020-08-15T07:25:23Z</time>
      </trkpt>
      <trkpt lat="44.84493" lon="6.15372">
        <ele>2181.3686523438</ele>
        <time>2020-08-15T07:25:31Z</time>
      </trkpt>
      <trkpt lat="44.84486" lon="6.15374">
        <ele>2178.4848632812</ele>
        <time>2020-08-15T07:25:47Z</time>
      </trkpt>
      <trkpt lat="44.84478" lon="6.15377">
        <ele>2181.8493652344</ele>
        <time>2020-08-15T07:26:08Z</time>
      </trkpt>
      <trkpt lat="44.84476" lon="6.15373">
        <ele>2183.2912597656</ele>
        <time>2020-08-15T07:26:35Z</time>
      </trkpt>
      <trkpt lat="44.84478" lon="6.15374">
        <ele>2182.330078125</ele>
        <time>2020-08-15T07:27:07Z</time>
      </trkpt>
      <trkpt lat="44.84479" lon="6.15376">
        <ele>2182.330078125</ele>
        <time>2020-08-15T07:27:54Z</time>
      </trkpt>
      <trkpt lat="44.84478" lon="6.15377">
        <ele>2182.810546875</ele>
        <time>2020-08-15T07:28:03Z</time>
      </trkpt>
      <trkpt lat="44.8448" lon="6.1538">
        <ele>2181.3686523438</ele>
        <time>2020-08-15T07:28:31Z</time>
      </trkpt>
      <trkpt lat="44.84478" lon="6.15372">
        <ele>2180.8881835938</ele>
        <time>2020-08-15T07:28:50Z</time>
      </trkpt>
      <trkpt lat="44.8448" lon="6.15375">
        <ele>2180.8881835938</ele>
        <time>2020-08-15T07:29:12Z</time>
      </trkpt>
      <trkpt lat="44.84481" lon="6.15374">
        <ele>2180.8881835938</ele>
        <time>2020-08-15T07:30:55Z</time>
      </trkpt>
      <trkpt lat="44.84481" lon="6.15373">
        <ele>2181.3686523438</ele>
        <time>2020-08-15T07:32:07Z</time>
      </trkpt>
      <trkpt lat="44.84482" lon="6.15373">
        <ele>2182.330078125</ele>
        <time>2020-08-15T07:32:26Z</time>
      </trkpt>
      <trkpt lat="44.8448" lon="6.15374">
        <ele>2182.330078125</ele>
        <time>2020-08-15T07:33:01Z</time>
      </trkpt>
      <trkpt lat="44.8448" lon="6.15374">
        <ele>2183.2912597656</ele>
        <time>2020-08-15T07:33:22Z</time>
      </trkpt>
      <trkpt lat="44.84482" lon="6.15373">
        <ele>2183.2912597656</ele>
        <time>2020-08-15T07:33:47Z</time>
      </trkpt>
      <trkpt lat="44.84482" lon="6.15374">
        <ele>2185.2138671875</ele>
        <time>2020-08-15T07:34:06Z</time>
      </trkpt>
      <trkpt lat="44.84482" lon="6.15373">
        <ele>2186.1752929688</ele>
        <time>2020-08-15T07:34:32Z</time>
      </trkpt>
      <trkpt lat="44.84481" lon="6.1537">
        <ele>2185.6945800781</ele>
        <time>2020-08-15T07:34:49Z</time>
      </trkpt>
      <trkpt lat="44.84481" lon="6.15373">
        <ele>2186.1752929688</ele>
        <time>2020-08-15T07:35:07Z</time>
      </trkpt>
      <trkpt lat="44.84478" lon="6.15372">
        <ele>2189.0593261719</ele>
        <time>2020-08-15T07:36:27Z</time>
      </trkpt>
      <trkpt lat="44.84477" lon="6.15373">
        <ele>2190.0207519531</ele>
        <time>2020-08-15T07:38:03Z</time>
      </trkpt>
      <trkpt lat="44.84475" lon="6.15374">
        <ele>2190.0207519531</ele>
        <time>2020-08-15T07:39:11Z</time>
      </trkpt>
      <trkpt lat="44.84474" lon="6.15374">
        <ele>2190.9819335938</ele>
        <time>2020-08-15T07:40:04Z</time>
      </trkpt>
      <trkpt lat="44.84477" lon="6.15385">
        <ele>2190.9819335938</ele>
        <time>2020-08-15T07:41:34Z</time>
      </trkpt>
      <trkpt lat="44.84479" lon="6.1539">
        <ele>2188.5788574219</ele>
        <time>2020-08-15T07:41:55Z</time>
      </trkpt>
      <trkpt lat="44.84476" lon="6.15392">
        <ele>2187.6171875</ele>
        <time>2020-08-15T07:42:16Z</time>
      </trkpt>
      <trkpt lat="44.84468" lon="6.15387">
        <ele>2184.2526855469</ele>
        <time>2020-08-15T07:42:32Z</time>
      </trkpt>
      <trkpt lat="44.84463" lon="6.15384">
        <ele>2181.8493652344</ele>
        <time>2020-08-15T07:43:04Z</time>
      </trkpt>
      <trkpt lat="44.84451" lon="6.15382">
        <ele>2178.0041503906</ele>
        <time>2020-08-15T07:43:27Z</time>
      </trkpt>
      <trkpt lat="44.84443" lon="6.15381">
        <ele>2173.6782226562</ele>
        <time>2020-08-15T07:43:41Z</time>
      </trkpt>
      <trkpt lat="44.84438" lon="6.1538">
        <ele>2170.3134765625</ele>
        <time>2020-08-15T07:43:57Z</time>
      </trkpt>
      <trkpt lat="44.84448" lon="6.15392">
        <ele>2168.8715820312</ele>
        <time>2020-08-15T07:44:21Z</time>
      </trkpt>
      <trkpt lat="44.84452" lon="6.15392">
        <ele>2162.1423339844</ele>
        <time>2020-08-15T07:45:22Z</time>
      </trkpt>
      <trkpt lat="44.84459" lon="6.15402">
        <ele>2162.623046875</ele>
        <time>2020-08-15T07:45:50Z</time>
      </trkpt>
      <trkpt lat="44.84467" lon="6.15424">
        <ele>2163.5842285156</ele>
        <time>2020-08-15T07:46:16Z</time>
      </trkpt>
      <trkpt lat="44.84474" lon="6.15439">
        <ele>2161.1811523438</ele>
        <time>2020-08-15T07:46:40Z</time>
      </trkpt>
      <trkpt lat="44.84477" lon="6.15459">
        <ele>2158.7778320312</ele>
        <time>2020-08-15T07:47:01Z</time>
      </trkpt>
      <trkpt lat="44.84484" lon="6.15475">
        <ele>2154.4516601562</ele>
        <time>2020-08-15T07:47:22Z</time>
      </trkpt>
      <trkpt lat="44.84493" lon="6.15483">
        <ele>2149.1645507812</ele>
        <time>2020-08-15T07:47:45Z</time>
      </trkpt>
      <trkpt lat="44.84496" lon="6.15488">
        <ele>2146.7612304688</ele>
        <time>2020-08-15T07:48:11Z</time>
      </trkpt>
      <trkpt lat="44.845" lon="6.15496">
        <ele>2146.2807617188</ele>
        <time>2020-08-15T07:48:28Z</time>
      </trkpt>
      <trkpt lat="44.84504" lon="6.15523">
        <ele>2145.8000488281</ele>
        <time>2020-08-15T07:48:53Z</time>
      </trkpt>
      <trkpt lat="44.84501" lon="6.1555">
        <ele>2152.0483398438</ele>
        <time>2020-08-15T07:49:20Z</time>
      </trkpt>
      <trkpt lat="44.84497" lon="6.15574">
        <ele>2153.4904785156</ele>
        <time>2020-08-15T07:49:43Z</time>
      </trkpt>
      <trkpt lat="44.84501" lon="6.15593">
        <ele>2151.5678710938</ele>
        <time>2020-08-15T07:50:06Z</time>
      </trkpt>
      <trkpt lat="44.84503" lon="6.156">
        <ele>2152.0483398438</ele>
        <time>2020-08-15T07:50:24Z</time>
      </trkpt>
      <trkpt lat="44.84495" lon="6.15614">
        <ele>2157.3359375</ele>
        <time>2020-08-15T07:51:18Z</time>
      </trkpt>
      <trkpt lat="44.84495" lon="6.15621">
        <ele>2155.4130859375</ele>
        <time>2020-08-15T07:51:49Z</time>
      </trkpt>
      <trkpt lat="44.84504" lon="6.1564">
        <ele>2159.2585449219</ele>
        <time>2020-08-15T07:52:20Z</time>
      </trkpt>
      <trkpt lat="44.84503" lon="6.15654">
        <ele>2163.1037597656</ele>
        <time>2020-08-15T07:52:40Z</time>
      </trkpt>
      <trkpt lat="44.84499" lon="6.1568">
        <ele>2167.4294433594</ele>
        <time>2020-08-15T07:53:21Z</time>
      </trkpt>
      <trkpt lat="44.84499" lon="6.15699">
        <ele>2172.7170410156</ele>
        <time>2020-08-15T07:53:48Z</time>
      </trkpt>
      <trkpt lat="44.84505" lon="6.15728">
        <ele>2175.1201171875</ele>
        <time>2020-08-15T07:54:27Z</time>
      </trkpt>
      <trkpt lat="44.84518" lon="6.15751">
        <ele>2178.4848632812</ele>
        <time>2020-08-15T07:55:05Z</time>
      </trkpt>
      <trkpt lat="44.84529" lon="6.15768">
        <ele>2184.2526855469</ele>
        <time>2020-08-15T07:55:42Z</time>
      </trkpt>
      <trkpt lat="44.84537" lon="6.15783">
        <ele>2187.1364746094</ele>
        <time>2020-08-15T07:56:12Z</time>
      </trkpt>
      <trkpt lat="44.84545" lon="6.15797">
        <ele>2190.9819335938</ele>
        <time>2020-08-15T07:56:35Z</time>
      </trkpt>
      <trkpt lat="44.84551" lon="6.15819">
        <ele>2193.3852539062</ele>
        <time>2020-08-15T07:57:07Z</time>
      </trkpt>
      <trkpt lat="44.84551" lon="6.15831">
        <ele>2196.2692871094</ele>
        <time>2020-08-15T07:57:33Z</time>
      </trkpt>
      <trkpt lat="44.8455" lon="6.1584">
        <ele>2200.5949707031</ele>
        <time>2020-08-15T07:58:01Z</time>
      </trkpt>
      <trkpt lat="44.84549" lon="6.15846">
        <ele>2200.5949707031</ele>
        <time>2020-08-15T07:58:34Z</time>
      </trkpt>
      <trkpt lat="44.84548" lon="6.15851">
        <ele>2199.1530761719</ele>
        <time>2020-08-15T07:59:31Z</time>
      </trkpt>
      <trkpt lat="44.84541" lon="6.15854">
        <ele>2202.517578125</ele>
        <time>2020-08-15T07:59:49Z</time>
      </trkpt>
      <trkpt lat="44.84539" lon="6.15857">
        <ele>2206.84375</ele>
        <time>2020-08-15T08:00:36Z</time>
      </trkpt>
      <trkpt lat="44.84534" lon="6.15862">
        <ele>2205.8823242188</ele>
        <time>2020-08-15T08:01:08Z</time>
      </trkpt>
      <trkpt lat="44.84531" lon="6.15868">
        <ele>2207.3244628906</ele>
        <time>2020-08-15T08:01:37Z</time>
      </trkpt>
      <trkpt lat="44.84532" lon="6.15886">
        <ele>2210.2082519531</ele>
        <time>2020-08-15T08:02:01Z</time>
      </trkpt>
      <trkpt lat="44.84528" lon="6.15903">
        <ele>2214.5341796875</ele>
        <time>2020-08-15T08:02:29Z</time>
      </trkpt>
      <trkpt lat="44.84528" lon="6.15925">
        <ele>2219.3408203125</ele>
        <time>2020-08-15T08:03:00Z</time>
      </trkpt>
      <trkpt lat="44.84534" lon="6.15929">
        <ele>2222.2248535156</ele>
        <time>2020-08-15T08:03:23Z</time>
      </trkpt>
      <trkpt lat="44.84538" lon="6.15924">
        <ele>2223.1862792969</ele>
        <time>2020-08-15T08:03:51Z</time>
      </trkpt>
      <trkpt lat="44.84549" lon="6.15904">
        <ele>2222.2248535156</ele>
        <time>2020-08-15T08:04:16Z</time>
      </trkpt>
      <trkpt lat="44.84553" lon="6.15904">
        <ele>2222.2248535156</ele>
        <time>2020-08-15T08:04:43Z</time>
      </trkpt>
      <trkpt lat="44.84548" lon="6.15914">
        <ele>2228.4733886719</ele>
        <time>2020-08-15T08:05:41Z</time>
      </trkpt>
      <trkpt lat="44.84546" lon="6.15926">
        <ele>2231.3571777344</ele>
        <time>2020-08-15T08:06:01Z</time>
      </trkpt>
      <trkpt lat="44.8455" lon="6.15943">
        <ele>2235.2023925781</ele>
        <time>2020-08-15T08:06:27Z</time>
      </trkpt>
      <trkpt lat="44.84557" lon="6.1593">
        <ele>2236.64453125</ele>
        <time>2020-08-15T08:06:50Z</time>
      </trkpt>
      <trkpt lat="44.84561" lon="6.15927">
        <ele>2238.0866699219</ele>
        <time>2020-08-15T08:07:15Z</time>
      </trkpt>
      <trkpt lat="44.84558" lon="6.15953">
        <ele>2248.1801757812</ele>
        <time>2020-08-15T08:07:53Z</time>
      </trkpt>
      <trkpt lat="44.84562" lon="6.15976">
        <ele>2251.0642089844</ele>
        <time>2020-08-15T08:08:23Z</time>
      </trkpt>
      <trkpt lat="44.84568" lon="6.15971">
        <ele>2253.4677734375</ele>
        <time>2020-08-15T08:08:45Z</time>
      </trkpt>
      <trkpt lat="44.84573" lon="6.15959">
        <ele>2256.3515625</ele>
        <time>2020-08-15T08:09:10Z</time>
      </trkpt>
      <trkpt lat="44.8458" lon="6.15942">
        <ele>2259.7160644531</ele>
        <time>2020-08-15T08:09:35Z</time>
      </trkpt>
      <trkpt lat="44.8459" lon="6.15935">
        <ele>2259.7160644531</ele>
        <time>2020-08-15T08:10:03Z</time>
      </trkpt>
      <trkpt lat="44.84586" lon="6.1594">
        <ele>2264.5227050781</ele>
        <time>2020-08-15T08:10:27Z</time>
      </trkpt>
      <trkpt lat="44.84582" lon="6.1596">
        <ele>2267.4064941406</ele>
        <time>2020-08-15T08:11:03Z</time>
      </trkpt>
      <trkpt lat="44.84585" lon="6.15982">
        <ele>2268.8488769531</ele>
        <time>2020-08-15T08:11:29Z</time>
      </trkpt>
      <trkpt lat="44.84584" lon="6.15995">
        <ele>2269.8100585938</ele>
        <time>2020-08-15T08:11:53Z</time>
      </trkpt>
      <trkpt lat="44.84585" lon="6.16009">
        <ele>2270.771484375</ele>
        <time>2020-08-15T08:12:39Z</time>
      </trkpt>
      <trkpt lat="44.84574" lon="6.16017">
        <ele>2274.6166992188</ele>
        <time>2020-08-15T08:14:53Z</time>
      </trkpt>
      <trkpt lat="44.8456" lon="6.16026">
        <ele>2278.9423828125</ele>
        <time>2020-08-15T08:15:22Z</time>
      </trkpt>
      <trkpt lat="44.84546" lon="6.1604">
        <ele>2280.865234375</ele>
        <time>2020-08-15T08:15:49Z</time>
      </trkpt>
      <trkpt lat="44.84536" lon="6.16053">
        <ele>2284.7106933594</ele>
        <time>2020-08-15T08:16:17Z</time>
      </trkpt>
      <trkpt lat="44.84524" lon="6.16064">
        <ele>2288.0751953125</ele>
        <time>2020-08-15T08:16:43Z</time>
      </trkpt>
      <trkpt lat="44.84509" lon="6.16076">
        <ele>2288.0751953125</ele>
        <time>2020-08-15T08:17:14Z</time>
      </trkpt>
      <trkpt lat="44.84494" lon="6.16083">
        <ele>2290.958984375</ele>
        <time>2020-08-15T08:17:40Z</time>
      </trkpt>
      <trkpt lat="44.84475" lon="6.16096">
        <ele>2293.8430175781</ele>
        <time>2020-08-15T08:18:08Z</time>
      </trkpt>
      <trkpt lat="44.84468" lon="6.16103">
        <ele>2295.765625</ele>
        <time>2020-08-15T08:18:30Z</time>
      </trkpt>
      <trkpt lat="44.84459" lon="6.16117">
        <ele>2298.1687011719</ele>
        <time>2020-08-15T08:18:51Z</time>
      </trkpt>
      <trkpt lat="44.84454" lon="6.16125">
        <ele>2296.2463378906</ele>
        <time>2020-08-15T08:19:10Z</time>
      </trkpt>
      <trkpt lat="44.84446" lon="6.16143">
        <ele>2296.2463378906</ele>
        <time>2020-08-15T08:19:34Z</time>
      </trkpt>
      <trkpt lat="44.84429" lon="6.16153">
        <ele>2297.6882324219</ele>
        <time>2020-08-15T08:20:06Z</time>
      </trkpt>
      <trkpt lat="44.84421" lon="6.16164">
        <ele>2300.091796875</ele>
        <time>2020-08-15T08:20:37Z</time>
      </trkpt>
      <trkpt lat="44.84414" lon="6.16173">
        <ele>2300.572265625</ele>
        <time>2020-08-15T08:21:01Z</time>
      </trkpt>
      <trkpt lat="44.84397" lon="6.16176">
        <ele>2302.0141601562</ele>
        <time>2020-08-15T08:21:30Z</time>
      </trkpt>
      <trkpt lat="44.84385" lon="6.16178">
        <ele>2308.2626953125</ele>
        <time>2020-08-15T08:21:53Z</time>
      </trkpt>
      <trkpt lat="44.84377" lon="6.16183">
        <ele>2311.6274414062</ele>
        <time>2020-08-15T08:22:15Z</time>
      </trkpt>
      <trkpt lat="44.84364" lon="6.16184">
        <ele>2314.9919433594</ele>
        <time>2020-08-15T08:22:43Z</time>
      </trkpt>
      <trkpt lat="44.8435" lon="6.1618">
        <ele>2323.1633300781</ele>
        <time>2020-08-15T08:23:13Z</time>
      </trkpt>
      <trkpt lat="44.84339" lon="6.16186">
        <ele>2323.6437988281</ele>
        <time>2020-08-15T08:23:45Z</time>
      </trkpt>
      <trkpt lat="44.84327" lon="6.16182">
        <ele>2323.6437988281</ele>
        <time>2020-08-15T08:24:34Z</time>
      </trkpt>
      <trkpt lat="44.84322" lon="6.16182">
        <ele>2325.56640625</ele>
        <time>2020-08-15T08:24:54Z</time>
      </trkpt>
      <trkpt lat="44.84317" lon="6.16176">
        <ele>2325.56640625</ele>
        <time>2020-08-15T08:25:16Z</time>
      </trkpt>
      <trkpt lat="44.84321" lon="6.16184">
        <ele>2326.5278320312</ele>
        <time>2020-08-15T08:25:35Z</time>
      </trkpt>
      <trkpt lat="44.84325" lon="6.16188">
        <ele>2327.4890136719</ele>
        <time>2020-08-15T08:25:58Z</time>
      </trkpt>
      <trkpt lat="44.84325" lon="6.16191">
        <ele>2327.4890136719</ele>
        <time>2020-08-15T08:27:06Z</time>
      </trkpt>
      <trkpt lat="44.84328" lon="6.16198">
        <ele>2327.4890136719</ele>
        <time>2020-08-15T08:27:43Z</time>
      </trkpt>
      <trkpt lat="44.8433" lon="6.16203">
        <ele>2327.9697265625</ele>
        <time>2020-08-15T08:28:08Z</time>
      </trkpt>
      <trkpt lat="44.84333" lon="6.16206">
        <ele>2329.4116210938</ele>
        <time>2020-08-15T08:28:39Z</time>
      </trkpt>
      <trkpt lat="44.8434" lon="6.16217">
        <ele>2331.8149414062</ele>
        <time>2020-08-15T08:28:59Z</time>
      </trkpt>
      <trkpt lat="44.84341" lon="6.16216">
        <ele>2333.2570800781</ele>
        <time>2020-08-15T08:29:25Z</time>
      </trkpt>
      <trkpt lat="44.84335" lon="6.16217">
        <ele>2334.69921875</ele>
        <time>2020-08-15T08:30:04Z</time>
      </trkpt>
      <trkpt lat="44.84334" lon="6.16217">
        <ele>2335.1796875</ele>
        <time>2020-08-15T08:30:05Z</time>
      </trkpt>
      <trkpt lat="44.84338" lon="6.16225">
        <ele>2335.1796875</ele>
        <time>2020-08-15T08:30:23Z</time>
      </trkpt>
      <trkpt lat="44.8435" lon="6.16239">
        <ele>2339.0249023438</ele>
        <time>2020-08-15T08:30:55Z</time>
      </trkpt>
      <trkpt lat="44.84354" lon="6.16242">
        <ele>2342.3896484375</ele>
        <time>2020-08-15T08:31:13Z</time>
      </trkpt>
      <trkpt lat="44.8436" lon="6.16243">
        <ele>2344.3120117188</ele>
        <time>2020-08-15T08:31:37Z</time>
      </trkpt>
      <trkpt lat="44.84361" lon="6.16242">
        <ele>2345.7541503906</ele>
        <time>2020-08-15T08:31:55Z</time>
      </trkpt>
      <trkpt lat="44.84359" lon="6.16243">
        <ele>2346.2348632812</ele>
        <time>2020-08-15T08:32:23Z</time>
      </trkpt>
      <trkpt lat="44.84356" lon="6.16243">
        <ele>2345.2734375</ele>
        <time>2020-08-15T08:32:44Z</time>
      </trkpt>
      <trkpt lat="44.84354" lon="6.16246">
        <ele>2345.2734375</ele>
        <time>2020-08-15T08:32:58Z</time>
      </trkpt>
      <trkpt lat="44.84347" lon="6.16242">
        <ele>2347.6767578125</ele>
        <time>2020-08-15T08:35:00Z</time>
      </trkpt>
      <trkpt lat="44.84334" lon="6.16242">
        <ele>2351.0415039062</ele>
        <time>2020-08-15T08:35:24Z</time>
      </trkpt>
      <trkpt lat="44.84332" lon="6.16242">
        <ele>2351.5222167969</ele>
        <time>2020-08-15T08:35:53Z</time>
      </trkpt>
      <trkpt lat="44.84331" lon="6.16242">
        <ele>2351.5222167969</ele>
        <time>2020-08-15T08:36:11Z</time>
      </trkpt>
      <trkpt lat="44.84332" lon="6.16248">
        <ele>2352.4833984375</ele>
        <time>2020-08-15T08:36:35Z</time>
      </trkpt>
      <trkpt lat="44.84337" lon="6.16255">
        <ele>2352.9641113281</ele>
        <time>2020-08-15T08:37:13Z</time>
      </trkpt>
      <trkpt lat="44.84345" lon="6.16258">
        <ele>2353.9255371094</ele>
        <time>2020-08-15T08:37:30Z</time>
      </trkpt>
      <trkpt lat="44.8435" lon="6.1626">
        <ele>2355.3674316406</ele>
        <time>2020-08-15T08:37:49Z</time>
      </trkpt>
      <trkpt lat="44.84344" lon="6.1626">
        <ele>2358.2512207031</ele>
        <time>2020-08-15T08:38:03Z</time>
      </trkpt>
      <trkpt lat="44.84339" lon="6.1626">
        <ele>2358.2512207031</ele>
        <time>2020-08-15T08:38:26Z</time>
      </trkpt>
      <trkpt lat="44.84338" lon="6.16259">
        <ele>2358.7319335938</ele>
        <time>2020-08-15T08:39:19Z</time>
      </trkpt>
      <trkpt lat="44.84335" lon="6.16261">
        <ele>2359.6931152344</ele>
        <time>2020-08-15T08:39:51Z</time>
      </trkpt>
      <trkpt lat="44.84333" lon="6.16263">
        <ele>2361.1352539062</ele>
        <time>2020-08-15T08:40:07Z</time>
      </trkpt>
      <trkpt lat="44.8433" lon="6.16263">
        <ele>2361.1352539062</ele>
        <time>2020-08-15T08:40:28Z</time>
      </trkpt>
      <trkpt lat="44.84329" lon="6.16263">
        <ele>2361.6159667969</ele>
        <time>2020-08-15T08:40:49Z</time>
      </trkpt>
      <trkpt lat="44.84326" lon="6.16264">
        <ele>2361.6159667969</ele>
        <time>2020-08-15T08:41:14Z</time>
      </trkpt>
      <trkpt lat="44.84324" lon="6.16263">
        <ele>2362.5771484375</ele>
        <time>2020-08-15T08:41:28Z</time>
      </trkpt>
      <trkpt lat="44.84325" lon="6.16263">
        <ele>2363.0578613281</ele>
        <time>2020-08-15T08:42:10Z</time>
      </trkpt>
      <trkpt lat="44.84322" lon="6.16265">
        <ele>2363.0578613281</ele>
        <time>2020-08-15T08:45:11Z</time>
      </trkpt>
      <trkpt lat="44.84329" lon="6.16272">
        <ele>2361.1352539062</ele>
        <time>2020-08-15T08:45:26Z</time>
      </trkpt>
      <trkpt lat="44.8433" lon="6.16274">
        <ele>2361.1352539062</ele>
        <time>2020-08-15T08:45:28Z</time>
      </trkpt>
      <trkpt lat="44.84336" lon="6.16294">
        <ele>2364.9807128906</ele>
        <time>2020-08-15T08:45:48Z</time>
      </trkpt>
      <trkpt lat="44.84341" lon="6.16299">
        <ele>2364.5</ele>
        <time>2020-08-15T08:46:04Z</time>
      </trkpt>
      <trkpt lat="44.84345" lon="6.16306">
        <ele>2361.6159667969</ele>
        <time>2020-08-15T08:46:20Z</time>
      </trkpt>
      <trkpt lat="44.84354" lon="6.16322">
        <ele>2355.3674316406</ele>
        <time>2020-08-15T08:46:39Z</time>
      </trkpt>
      <trkpt lat="44.84357" lon="6.16326">
        <ele>2353.4448242188</ele>
        <time>2020-08-15T08:47:01Z</time>
      </trkpt>
      <trkpt lat="44.8436" lon="6.16333">
        <ele>2352.0026855469</ele>
        <time>2020-08-15T08:47:21Z</time>
      </trkpt>
      <trkpt lat="44.84365" lon="6.16343">
        <ele>2350.0803222656</ele>
        <time>2020-08-15T08:47:39Z</time>
      </trkpt>
      <trkpt lat="44.8437" lon="6.1636">
        <ele>2351.5222167969</ele>
        <time>2020-08-15T08:48:00Z</time>
      </trkpt>
      <trkpt lat="44.84368" lon="6.16367">
        <ele>2354.4060058594</ele>
        <time>2020-08-15T08:48:08Z</time>
      </trkpt>
      <trkpt lat="44.84363" lon="6.16379">
        <ele>2360.6545410156</ele>
        <time>2020-08-15T08:48:23Z</time>
      </trkpt>
      <trkpt lat="44.84358" lon="6.16382">
        <ele>2363.0578613281</ele>
        <time>2020-08-15T08:48:47Z</time>
      </trkpt>
      <trkpt lat="44.84347" lon="6.16385">
        <ele>2364.9807128906</ele>
        <time>2020-08-15T08:48:59Z</time>
      </trkpt>
      <trkpt lat="44.84331" lon="6.1639">
        <ele>2366.4226074219</ele>
        <time>2020-08-15T08:49:19Z</time>
      </trkpt>
      <trkpt lat="44.84319" lon="6.16398">
        <ele>2367.8645019531</ele>
        <time>2020-08-15T08:49:42Z</time>
      </trkpt>
      <trkpt lat="44.84317" lon="6.16401">
        <ele>2367.8645019531</ele>
        <time>2020-08-15T08:50:08Z</time>
      </trkpt>
      <trkpt lat="44.84312" lon="6.16413">
        <ele>2366.4226074219</ele>
        <time>2020-08-15T08:50:19Z</time>
      </trkpt>
      <trkpt lat="44.84305" lon="6.16421">
        <ele>2367.3837890625</ele>
        <time>2020-08-15T08:50:31Z</time>
      </trkpt>
      <trkpt lat="44.84304" lon="6.16425">
        <ele>2367.3837890625</ele>
        <time>2020-08-15T08:50:46Z</time>
      </trkpt>
      <trkpt lat="44.84304" lon="6.16433">
        <ele>2368.3452148438</ele>
        <time>2020-08-15T08:51:06Z</time>
      </trkpt>
      <trkpt lat="44.84301" lon="6.1645">
        <ele>2367.3837890625</ele>
        <time>2020-08-15T08:51:19Z</time>
      </trkpt>
      <trkpt lat="44.84299" lon="6.16461">
        <ele>2368.3452148438</ele>
        <time>2020-08-15T08:51:33Z</time>
      </trkpt>
      <trkpt lat="44.84299" lon="6.1647">
        <ele>2367.8645019531</ele>
        <time>2020-08-15T08:51:43Z</time>
      </trkpt>
      <trkpt lat="44.8429" lon="6.16473">
        <ele>2370.7485351562</ele>
        <time>2020-08-15T08:52:08Z</time>
      </trkpt>
      <trkpt lat="44.84287" lon="6.16472">
        <ele>2371.2290039062</ele>
        <time>2020-08-15T08:52:27Z</time>
      </trkpt>
      <trkpt lat="44.84276" lon="6.16471">
        <ele>2378.4389648438</ele>
        <time>2020-08-15T09:17:04Z</time>
      </trkpt>
      <trkpt lat="44.84279" lon="6.16496">
        <ele>2376.0356445312</ele>
        <time>2020-08-15T09:17:40Z</time>
      </trkpt>
      <trkpt lat="44.84276" lon="6.16504">
        <ele>2374.59375</ele>
        <time>2020-08-15T09:18:01Z</time>
      </trkpt>
      <trkpt lat="44.84268" lon="6.16507">
        <ele>2374.59375</ele>
        <time>2020-08-15T09:18:16Z</time>
      </trkpt>
      <trkpt lat="44.84268" lon="6.1652">
        <ele>2375.5549316406</ele>
        <time>2020-08-15T09:18:37Z</time>
      </trkpt>
      <trkpt lat="44.84272" lon="6.16531">
        <ele>2375.5549316406</ele>
        <time>2020-08-15T09:19:10Z</time>
      </trkpt>
      <trkpt lat="44.84272" lon="6.1654">
        <ele>2376.5163574219</ele>
        <time>2020-08-15T09:19:29Z</time>
      </trkpt>
      <trkpt lat="44.84272" lon="6.16554">
        <ele>2378.4389648438</ele>
        <time>2020-08-15T09:19:40Z</time>
      </trkpt>
      <trkpt lat="44.84268" lon="6.16569">
        <ele>2380.3618164062</ele>
        <time>2020-08-15T09:19:56Z</time>
      </trkpt>
      <trkpt lat="44.84259" lon="6.16578">
        <ele>2380.3618164062</ele>
        <time>2020-08-15T09:20:12Z</time>
      </trkpt>
      <trkpt lat="44.84248" lon="6.16592">
        <ele>2381.8037109375</ele>
        <time>2020-08-15T09:20:33Z</time>
      </trkpt>
      <trkpt lat="44.84247" lon="6.16593">
        <ele>2382.2844238281</ele>
        <time>2020-08-15T09:20:34Z</time>
      </trkpt>
      <trkpt lat="44.84246" lon="6.16595">
        <ele>2382.7648925781</ele>
        <time>2020-08-15T09:20:36Z</time>
      </trkpt>
      <trkpt lat="44.84249" lon="6.16615">
        <ele>2381.8037109375</ele>
        <time>2020-08-15T09:20:53Z</time>
      </trkpt>
      <trkpt lat="44.84254" lon="6.16629">
        <ele>2381.3229980469</ele>
        <time>2020-08-15T09:21:10Z</time>
      </trkpt>
      <trkpt lat="44.84252" lon="6.16645">
        <ele>2382.7648925781</ele>
        <time>2020-08-15T09:21:31Z</time>
      </trkpt>
      <trkpt lat="44.84254" lon="6.1666">
        <ele>2384.20703125</ele>
        <time>2020-08-15T09:21:48Z</time>
      </trkpt>
      <trkpt lat="44.84249" lon="6.16665">
        <ele>2385.6489257812</ele>
        <time>2020-08-15T09:22:07Z</time>
      </trkpt>
      <trkpt lat="44.84239" lon="6.16672">
        <ele>2385.1682128906</ele>
        <time>2020-08-15T09:22:25Z</time>
      </trkpt>
      <trkpt lat="44.84226" lon="6.16678">
        <ele>2388.5329589844</ele>
        <time>2020-08-15T09:22:43Z</time>
      </trkpt>
      <trkpt lat="44.84219" lon="6.16686">
        <ele>2395.7426757812</ele>
        <time>2020-08-15T09:23:05Z</time>
      </trkpt>
      <trkpt lat="44.84217" lon="6.16695">
        <ele>2398.1459960938</ele>
        <time>2020-08-15T09:23:38Z</time>
      </trkpt>
      <trkpt lat="44.84218" lon="6.16712">
        <ele>2399.5881347656</ele>
        <time>2020-08-15T09:23:59Z</time>
      </trkpt>
      <trkpt lat="44.8422" lon="6.16722">
        <ele>2400.5493164062</ele>
        <time>2020-08-15T09:24:15Z</time>
      </trkpt>
      <trkpt lat="44.84217" lon="6.16733">
        <ele>2401.9912109375</ele>
        <time>2020-08-15T09:24:38Z</time>
      </trkpt>
      <trkpt lat="44.84216" lon="6.16749">
        <ele>2403.9140625</ele>
        <time>2020-08-15T09:24:57Z</time>
      </trkpt>
      <trkpt lat="44.84217" lon="6.1676">
        <ele>2403.9140625</ele>
        <time>2020-08-15T09:25:19Z</time>
      </trkpt>
      <trkpt lat="44.84216" lon="6.16764">
        <ele>2401.5107421875</ele>
        <time>2020-08-15T09:25:46Z</time>
      </trkpt>
      <trkpt lat="44.84219" lon="6.16765">
        <ele>2401.0300292969</ele>
        <time>2020-08-15T09:27:53Z</time>
      </trkpt>
      <trkpt lat="44.84223" lon="6.16778">
        <ele>2403.9140625</ele>
        <time>2020-08-15T09:28:22Z</time>
      </trkpt>
      <trkpt lat="44.84229" lon="6.16791">
        <ele>2405.8364257812</ele>
        <time>2020-08-15T09:28:44Z</time>
      </trkpt>
      <trkpt lat="44.84236" lon="6.16796">
        <ele>2409.201171875</ele>
        <time>2020-08-15T09:29:13Z</time>
      </trkpt>
      <trkpt lat="44.84236" lon="6.16802">
        <ele>2410.6430664062</ele>
        <time>2020-08-15T09:29:43Z</time>
      </trkpt>
      <trkpt lat="44.84236" lon="6.16802">
        <ele>2410.1623535156</ele>
        <time>2020-08-15T09:29:47Z</time>
      </trkpt>
      <trkpt lat="44.84236" lon="6.16792">
        <ele>2413.0466308594</ele>
        <time>2020-08-15T09:29:59Z</time>
      </trkpt>
      <trkpt lat="44.84245" lon="6.16777">
        <ele>2414.4885253906</ele>
        <time>2020-08-15T09:30:17Z</time>
      </trkpt>
      <trkpt lat="44.84254" lon="6.16788">
        <ele>2416.4111328125</ele>
        <time>2020-08-15T09:30:43Z</time>
      </trkpt>
      <trkpt lat="44.84255" lon="6.16804">
        <ele>2421.2175292969</ele>
        <time>2020-08-15T09:31:04Z</time>
      </trkpt>
      <trkpt lat="44.84253" lon="6.16819">
        <ele>2425.0627441406</ele>
        <time>2020-08-15T09:31:22Z</time>
      </trkpt>
      <trkpt lat="44.84242" lon="6.16829">
        <ele>2427.4660644531</ele>
        <time>2020-08-15T09:31:45Z</time>
      </trkpt>
      <trkpt lat="44.84231" lon="6.16843">
        <ele>2426.9855957031</ele>
        <time>2020-08-15T09:32:06Z</time>
      </trkpt>
      <trkpt lat="44.84228" lon="6.16848">
        <ele>2430.3503417969</ele>
        <time>2020-08-15T09:32:23Z</time>
      </trkpt>
      <trkpt lat="44.84227" lon="6.16863">
        <ele>2429.8696289062</ele>
        <time>2020-08-15T09:32:41Z</time>
      </trkpt>
      <trkpt lat="44.84229" lon="6.16868">
        <ele>2426.9855957031</ele>
        <time>2020-08-15T09:32:58Z</time>
      </trkpt>
      <trkpt lat="44.84225" lon="6.16875">
        <ele>2425.0627441406</ele>
        <time>2020-08-15T09:34:00Z</time>
      </trkpt>
      <trkpt lat="44.84225" lon="6.16877">
        <ele>2423.6208496094</ele>
        <time>2020-08-15T09:34:32Z</time>
      </trkpt>
      <trkpt lat="44.84228" lon="6.16873">
        <ele>2421.6982421875</ele>
        <time>2020-08-15T09:35:29Z</time>
      </trkpt>
      <trkpt lat="44.84222" lon="6.16879">
        <ele>2422.1789550781</ele>
        <time>2020-08-15T09:36:57Z</time>
      </trkpt>
      <trkpt lat="44.84218" lon="6.16884">
        <ele>2421.2175292969</ele>
        <time>2020-08-15T09:37:12Z</time>
      </trkpt>
      <trkpt lat="44.84231" lon="6.16885">
        <ele>2421.2175292969</ele>
        <time>2020-08-15T09:37:30Z</time>
      </trkpt>
      <trkpt lat="44.84246" lon="6.16884">
        <ele>2419.7756347656</ele>
        <time>2020-08-15T09:37:57Z</time>
      </trkpt>
      <trkpt lat="44.84243" lon="6.16895">
        <ele>2418.3337402344</ele>
        <time>2020-08-15T09:38:14Z</time>
      </trkpt>
      <trkpt lat="44.84239" lon="6.16897">
        <ele>2416.8918457031</ele>
        <time>2020-08-15T09:38:27Z</time>
      </trkpt>
      <trkpt lat="44.84233" lon="6.16897">
        <ele>2415.9304199219</ele>
        <time>2020-08-15T09:38:52Z</time>
      </trkpt>
      <trkpt lat="44.8423" lon="6.16908">
        <ele>2414.4885253906</ele>
        <time>2020-08-15T09:39:10Z</time>
      </trkpt>
      <trkpt lat="44.84242" lon="6.16909">
        <ele>2411.1237792969</ele>
        <time>2020-08-15T09:39:28Z</time>
      </trkpt>
      <trkpt lat="44.84256" lon="6.16912">
        <ele>2405.3559570312</ele>
        <time>2020-08-15T09:39:48Z</time>
      </trkpt>
      <trkpt lat="44.84277" lon="6.16923">
        <ele>2397.6655273438</ele>
        <time>2020-08-15T09:40:14Z</time>
      </trkpt>
      <trkpt lat="44.84281" lon="6.16922">
        <ele>2389.0134277344</ele>
        <time>2020-08-15T09:40:47Z</time>
      </trkpt>
      <trkpt lat="44.84278" lon="6.16925">
        <ele>2388.0522460938</ele>
        <time>2020-08-15T09:41:00Z</time>
      </trkpt>
      <trkpt lat="44.84265" lon="6.16926">
        <ele>2391.4167480469</ele>
        <time>2020-08-15T09:41:18Z</time>
      </trkpt>
      <trkpt lat="44.84256" lon="6.16927">
        <ele>2392.3781738281</ele>
        <time>2020-08-15T09:41:36Z</time>
      </trkpt>
      <trkpt lat="44.84259" lon="6.16937">
        <ele>2392.8586425781</ele>
        <time>2020-08-15T09:41:39Z</time>
      </trkpt>
      <trkpt lat="44.84276" lon="6.16942">
        <ele>2388.0522460938</ele>
        <time>2020-08-15T09:41:58Z</time>
      </trkpt>
      <trkpt lat="44.84295" lon="6.16947">
        <ele>2383.7263183594</ele>
        <time>2020-08-15T09:42:25Z</time>
      </trkpt>
      <trkpt lat="44.84303" lon="6.16952">
        <ele>2380.8425292969</ele>
        <time>2020-08-15T09:42:39Z</time>
      </trkpt>
      <trkpt lat="44.84306" lon="6.16952">
        <ele>2380.3618164062</ele>
        <time>2020-08-15T09:42:41Z</time>
      </trkpt>
      <trkpt lat="44.84324" lon="6.16958">
        <ele>2376.5163574219</ele>
        <time>2020-08-15T09:43:02Z</time>
      </trkpt>
      <trkpt lat="44.84329" lon="6.16956">
        <ele>2370.2678222656</ele>
        <time>2020-08-15T09:43:36Z</time>
      </trkpt>
      <trkpt lat="44.84323" lon="6.16956">
        <ele>2369.787109375</ele>
        <time>2020-08-15T09:44:46Z</time>
      </trkpt>
      <trkpt lat="44.84307" lon="6.16959">
        <ele>2370.2678222656</ele>
        <time>2020-08-15T09:45:12Z</time>
      </trkpt>
      <trkpt lat="44.84293" lon="6.16967">
        <ele>2370.2678222656</ele>
        <time>2020-08-15T09:46:01Z</time>
      </trkpt>
      <trkpt lat="44.84285" lon="6.16974">
        <ele>2370.2678222656</ele>
        <time>2020-08-15T09:46:20Z</time>
      </trkpt>
      <trkpt lat="44.84279" lon="6.16992">
        <ele>2370.2678222656</ele>
        <time>2020-08-15T09:46:44Z</time>
      </trkpt>
      <trkpt lat="44.84281" lon="6.16993">
        <ele>2370.2678222656</ele>
        <time>2020-08-15T09:46:47Z</time>
      </trkpt>
      <trkpt lat="44.84288" lon="6.16999">
        <ele>2370.7485351562</ele>
        <time>2020-08-15T09:47:01Z</time>
      </trkpt>
      <trkpt lat="44.84303" lon="6.16991">
        <ele>2370.2678222656</ele>
        <time>2020-08-15T09:47:16Z</time>
      </trkpt>
      <trkpt lat="44.84319" lon="6.16987">
        <ele>2370.2678222656</ele>
        <time>2020-08-15T09:47:30Z</time>
      </trkpt>
      <trkpt lat="44.84322" lon="6.16984">
        <ele>2367.8645019531</ele>
        <time>2020-08-15T09:47:53Z</time>
      </trkpt>
      <trkpt lat="44.84329" lon="6.17006">
        <ele>2365.4614257812</ele>
        <time>2020-08-15T09:48:19Z</time>
      </trkpt>
      <trkpt lat="44.84328" lon="6.17023">
        <ele>2363.0578613281</ele>
        <time>2020-08-15T09:48:43Z</time>
      </trkpt>
      <trkpt lat="44.84332" lon="6.17027">
        <ele>2362.0964355469</ele>
        <time>2020-08-15T09:48:57Z</time>
      </trkpt>
      <trkpt lat="44.8434" lon="6.17034">
        <ele>2361.1352539062</ele>
        <time>2020-08-15T09:49:18Z</time>
      </trkpt>
      <trkpt lat="44.84347" lon="6.17045">
        <ele>2360.173828125</ele>
        <time>2020-08-15T09:49:38Z</time>
      </trkpt>
      <trkpt lat="44.84348" lon="6.17061">
        <ele>2358.7319335938</ele>
        <time>2020-08-15T09:50:02Z</time>
      </trkpt>
      <trkpt lat="44.84347" lon="6.17064">
        <ele>2354.88671875</ele>
        <time>2020-08-15T09:50:22Z</time>
      </trkpt>
      <trkpt lat="44.84345" lon="6.17065">
        <ele>2353.4448242188</ele>
        <time>2020-08-15T09:50:34Z</time>
      </trkpt>
      <trkpt lat="44.84339" lon="6.17059">
        <ele>2354.88671875</ele>
        <time>2020-08-15T09:50:47Z</time>
      </trkpt>
      <trkpt lat="44.84333" lon="6.17054">
        <ele>2355.8479003906</ele>
        <time>2020-08-15T09:51:18Z</time>
      </trkpt>
      <trkpt lat="44.84321" lon="6.17051">
        <ele>2353.9255371094</ele>
        <time>2020-08-15T09:52:24Z</time>
      </trkpt>
      <trkpt lat="44.84311" lon="6.17041">
        <ele>2352.4833984375</ele>
        <time>2020-08-15T09:52:39Z</time>
      </trkpt>
      <trkpt lat="44.84308" lon="6.17037">
        <ele>2351.5222167969</ele>
        <time>2020-08-15T09:52:46Z</time>
      </trkpt>
      <trkpt lat="44.84297" lon="6.17034">
        <ele>2348.6381835938</ele>
        <time>2020-08-15T09:52:58Z</time>
      </trkpt>
      <trkpt lat="44.84301" lon="6.17041">
        <ele>2345.7541503906</ele>
        <time>2020-08-15T09:53:15Z</time>
      </trkpt>
      <trkpt lat="44.84302" lon="6.17038">
        <ele>2342.8701171875</ele>
        <time>2020-08-15T09:53:32Z</time>
      </trkpt>
      <trkpt lat="44.84303" lon="6.17042">
        <ele>2338.5444335938</ele>
        <time>2020-08-15T09:54:49Z</time>
      </trkpt>
      <trkpt lat="44.84308" lon="6.17043">
        <ele>2338.0637207031</ele>
        <time>2020-08-15T09:55:00Z</time>
      </trkpt>
      <trkpt lat="44.84312" lon="6.17051">
        <ele>2337.1022949219</ele>
        <time>2020-08-15T09:55:16Z</time>
      </trkpt>
      <trkpt lat="44.8431" lon="6.17066">
        <ele>2336.1411132812</ele>
        <time>2020-08-15T09:55:32Z</time>
      </trkpt>
      <trkpt lat="44.84316" lon="6.17075">
        <ele>2335.6604003906</ele>
        <time>2020-08-15T09:55:46Z</time>
      </trkpt>
      <trkpt lat="44.84323" lon="6.17089">
        <ele>2334.2185058594</ele>
        <time>2020-08-15T09:56:02Z</time>
      </trkpt>
      <trkpt lat="44.84333" lon="6.17103">
        <ele>2331.8149414062</ele>
        <time>2020-08-15T09:56:21Z</time>
      </trkpt>
      <trkpt lat="44.84341" lon="6.17119">
        <ele>2326.0471191406</ele>
        <time>2020-08-15T09:56:38Z</time>
      </trkpt>
      <trkpt lat="44.84348" lon="6.17128">
        <ele>2321.7211914062</ele>
        <time>2020-08-15T09:56:50Z</time>
      </trkpt>
      <trkpt lat="44.84355" lon="6.17143">
        <ele>2315.953125</ele>
        <time>2020-08-15T09:57:07Z</time>
      </trkpt>
      <trkpt lat="44.84356" lon="6.17158">
        <ele>2311.6274414062</ele>
        <time>2020-08-15T09:57:22Z</time>
      </trkpt>
      <trkpt lat="44.8436" lon="6.17163">
        <ele>2308.7434082031</ele>
        <time>2020-08-15T09:57:37Z</time>
      </trkpt>
      <trkpt lat="44.84361" lon="6.17171">
        <ele>2305.859375</ele>
        <time>2020-08-15T09:58:04Z</time>
      </trkpt>
      <trkpt lat="44.84363" lon="6.17177">
        <ele>2303.4562988281</ele>
        <time>2020-08-15T09:58:32Z</time>
      </trkpt>
      <trkpt lat="44.84367" lon="6.17186">
        <ele>2301.5336914062</ele>
        <time>2020-08-15T09:58:47Z</time>
      </trkpt>
      <trkpt lat="44.84371" lon="6.17195">
        <ele>2300.091796875</ele>
        <time>2020-08-15T09:59:15Z</time>
      </trkpt>
      <trkpt lat="44.84381" lon="6.1721">
        <ele>2296.7268066406</ele>
        <time>2020-08-15T09:59:35Z</time>
      </trkpt>
      <trkpt lat="44.84394" lon="6.17223">
        <ele>2292.4011230469</ele>
        <time>2020-08-15T09:59:59Z</time>
      </trkpt>
      <trkpt lat="44.844" lon="6.17235">
        <ele>2291.4396972656</ele>
        <time>2020-08-15T10:00:20Z</time>
      </trkpt>
      <trkpt lat="44.84401" lon="6.17236">
        <ele>2290.958984375</ele>
        <time>2020-08-15T10:01:12Z</time>
      </trkpt>
      <trkpt lat="44.844" lon="6.17235">
        <ele>2291.4396972656</ele>
        <time>2020-08-15T10:02:02Z</time>
      </trkpt>
      <trkpt lat="44.84404" lon="6.1724">
        <ele>2291.9204101562</ele>
        <time>2020-08-15T10:04:43Z</time>
      </trkpt>
      <trkpt lat="44.84404" lon="6.17256">
        <ele>2293.3623046875</ele>
        <time>2020-08-15T10:06:19Z</time>
      </trkpt>
      <trkpt lat="44.84408" lon="6.17266">
        <ele>2292.8815917969</ele>
        <time>2020-08-15T10:06:41Z</time>
      </trkpt>
      <trkpt lat="44.8441" lon="6.17269">
        <ele>2293.8430175781</ele>
        <time>2020-08-15T10:07:26Z</time>
      </trkpt>
      <trkpt lat="44.84412" lon="6.17276">
        <ele>2293.3623046875</ele>
        <time>2020-08-15T10:07:45Z</time>
      </trkpt>
      <trkpt lat="44.84412" lon="6.17283">
        <ele>2292.8815917969</ele>
        <time>2020-08-15T10:08:08Z</time>
      </trkpt>
      <trkpt lat="44.84413" lon="6.17292">
        <ele>2294.3234863281</ele>
        <time>2020-08-15T10:08:30Z</time>
      </trkpt>
      <trkpt lat="44.84421" lon="6.17316">
        <ele>2295.2849121094</ele>
        <time>2020-08-15T10:08:51Z</time>
      </trkpt>
      <trkpt lat="44.84426" lon="6.17327">
        <ele>2290.958984375</ele>
        <time>2020-08-15T10:09:09Z</time>
      </trkpt>
      <trkpt lat="44.84429" lon="6.17337">
        <ele>2290.4782714844</ele>
        <time>2020-08-15T10:09:26Z</time>
      </trkpt>
      <trkpt lat="44.84436" lon="6.17342">
        <ele>2282.7875976562</ele>
        <time>2020-08-15T10:09:47Z</time>
      </trkpt>
      <trkpt lat="44.84442" lon="6.17347">
        <ele>2280.3845214844</ele>
        <time>2020-08-15T10:10:06Z</time>
      </trkpt>
      <trkpt lat="44.84445" lon="6.17354">
        <ele>2281.345703125</ele>
        <time>2020-08-15T10:10:26Z</time>
      </trkpt>
      <trkpt lat="44.84448" lon="6.17361">
        <ele>2277.5004882812</ele>
        <time>2020-08-15T10:10:45Z</time>
      </trkpt>
      <trkpt lat="44.8445" lon="6.17365">
        <ele>2276.05859375</ele>
        <time>2020-08-15T10:11:03Z</time>
      </trkpt>
      <trkpt lat="44.84457" lon="6.17371">
        <ele>2273.1748046875</ele>
        <time>2020-08-15T10:11:23Z</time>
      </trkpt>
      <trkpt lat="44.84461" lon="6.17382">
        <ele>2272.6940917969</ele>
        <time>2020-08-15T10:11:41Z</time>
      </trkpt>
      <trkpt lat="44.84466" lon="6.17388">
        <ele>2270.771484375</ele>
        <time>2020-08-15T10:11:58Z</time>
      </trkpt>
      <trkpt lat="44.8447" lon="6.17388">
        <ele>2268.3681640625</ele>
        <time>2020-08-15T10:12:25Z</time>
      </trkpt>
      <trkpt lat="44.84474" lon="6.17396">
        <ele>2267.8872070312</ele>
        <time>2020-08-15T10:12:44Z</time>
      </trkpt>
      <trkpt lat="44.84485" lon="6.17402">
        <ele>2265.9645996094</ele>
        <time>2020-08-15T10:13:08Z</time>
      </trkpt>
      <trkpt lat="44.8449" lon="6.17413">
        <ele>2260.6774902344</ele>
        <time>2020-08-15T10:13:29Z</time>
      </trkpt>
      <trkpt lat="44.84495" lon="6.17423">
        <ele>2258.2741699219</ele>
        <time>2020-08-15T10:13:47Z</time>
      </trkpt>
      <trkpt lat="44.84497" lon="6.17422">
        <ele>2255.8708496094</ele>
        <time>2020-08-15T10:14:06Z</time>
      </trkpt>
      <trkpt lat="44.845" lon="6.17428">
        <ele>2256.3515625</ele>
        <time>2020-08-15T10:14:26Z</time>
      </trkpt>
      <trkpt lat="44.84503" lon="6.17433">
        <ele>2255.8708496094</ele>
        <time>2020-08-15T10:15:01Z</time>
      </trkpt>
      <trkpt lat="44.84505" lon="6.17436">
        <ele>2255.8708496094</ele>
        <time>2020-08-15T10:15:21Z</time>
      </trkpt>
      <trkpt lat="44.84503" lon="6.17441">
        <ele>2256.8322753906</ele>
        <time>2020-08-15T10:16:05Z</time>
      </trkpt>
      <trkpt lat="44.845" lon="6.17456">
        <ele>2261.6389160156</ele>
        <time>2020-08-15T10:19:53Z</time>
      </trkpt>
      <trkpt lat="44.84497" lon="6.1747">
        <ele>2266.4453125</ele>
        <time>2020-08-15T10:20:25Z</time>
      </trkpt>
      <trkpt lat="44.84498" lon="6.17488">
        <ele>2272.6940917969</ele>
        <time>2020-08-15T10:21:07Z</time>
      </trkpt>
      <trkpt lat="44.84495" lon="6.17501">
        <ele>2277.5004882812</ele>
        <time>2020-08-15T10:21:39Z</time>
      </trkpt>
      <trkpt lat="44.84496" lon="6.17518">
        <ele>2279.4230957031</ele>
        <time>2020-08-15T10:22:11Z</time>
      </trkpt>
      <trkpt lat="44.84499" lon="6.17519">
        <ele>2282.3071289062</ele>
        <time>2020-08-15T10:22:52Z</time>
      </trkpt>
      <trkpt lat="44.84497" lon="6.17544">
        <ele>2284.7106933594</ele>
        <time>2020-08-15T10:23:26Z</time>
      </trkpt>
      <trkpt lat="44.845" lon="6.1755">
        <ele>2288.0751953125</ele>
        <time>2020-08-15T10:23:49Z</time>
      </trkpt>
      <trkpt lat="44.845" lon="6.17563">
        <ele>2289.0363769531</ele>
        <time>2020-08-15T10:24:25Z</time>
      </trkpt>
      <trkpt lat="44.84503" lon="6.17574">
        <ele>2291.4396972656</ele>
        <time>2020-08-15T10:25:06Z</time>
      </trkpt>
      <trkpt lat="44.84502" lon="6.17583">
        <ele>2289.9978027344</ele>
        <time>2020-08-15T10:25:31Z</time>
      </trkpt>
      <trkpt lat="44.8451" lon="6.17595">
        <ele>2287.5944824219</ele>
        <time>2020-08-15T10:25:55Z</time>
      </trkpt>
      <trkpt lat="44.84518" lon="6.17616">
        <ele>2287.5944824219</ele>
        <time>2020-08-15T10:26:21Z</time>
      </trkpt>
      <trkpt lat="44.84525" lon="6.17634">
        <ele>2283.2683105469</ele>
        <time>2020-08-15T10:26:46Z</time>
      </trkpt>
      <trkpt lat="44.84527" lon="6.17643">
        <ele>2282.7875976562</ele>
        <time>2020-08-15T10:27:04Z</time>
      </trkpt>
      <trkpt lat="44.84528" lon="6.1767">
        <ele>2281.8264160156</ele>
        <time>2020-08-15T10:27:27Z</time>
      </trkpt>
      <trkpt lat="44.84527" lon="6.17691">
        <ele>2280.3845214844</ele>
        <time>2020-08-15T10:27:46Z</time>
      </trkpt>
      <trkpt lat="44.84532" lon="6.17712">
        <ele>2280.865234375</ele>
        <time>2020-08-15T10:28:12Z</time>
      </trkpt>
      <trkpt lat="44.84532" lon="6.1771">
        <ele>2281.8264160156</ele>
        <time>2020-08-15T10:28:23Z</time>
      </trkpt>
      <trkpt lat="44.8454" lon="6.17735">
        <ele>2282.3071289062</ele>
        <time>2020-08-15T10:28:47Z</time>
      </trkpt>
      <trkpt lat="44.84552" lon="6.17752">
        <ele>2283.7490234375</ele>
        <time>2020-08-15T10:29:12Z</time>
      </trkpt>
      <trkpt lat="44.84559" lon="6.17769">
        <ele>2284.2299804688</ele>
        <time>2020-08-15T10:29:37Z</time>
      </trkpt>
      <trkpt lat="44.84565" lon="6.17788">
        <ele>2284.7106933594</ele>
        <time>2020-08-15T10:30:01Z</time>
      </trkpt>
      <trkpt lat="44.84577" lon="6.17799">
        <ele>2282.3071289062</ele>
        <time>2020-08-15T10:30:27Z</time>
      </trkpt>
      <trkpt lat="44.84584" lon="6.17809">
        <ele>2282.3071289062</ele>
        <time>2020-08-15T10:30:47Z</time>
      </trkpt>
      <trkpt lat="44.8459" lon="6.1782">
        <ele>2281.8264160156</ele>
        <time>2020-08-15T10:31:08Z</time>
      </trkpt>
      <trkpt lat="44.8459" lon="6.17833">
        <ele>2282.7875976562</ele>
        <time>2020-08-15T10:31:34Z</time>
      </trkpt>
      <trkpt lat="44.84589" lon="6.17837">
        <ele>2282.7875976562</ele>
        <time>2020-08-15T10:31:38Z</time>
      </trkpt>
      <trkpt lat="44.84584" lon="6.17864">
        <ele>2281.345703125</ele>
        <time>2020-08-15T10:32:01Z</time>
      </trkpt>
      <trkpt lat="44.84583" lon="6.17871">
        <ele>2279.4230957031</ele>
        <time>2020-08-15T10:32:34Z</time>
      </trkpt>
      <trkpt lat="44.84586" lon="6.17892">
        <ele>2278.9423828125</ele>
        <time>2020-08-15T10:33:09Z</time>
      </trkpt>
      <trkpt lat="44.84588" lon="6.17903">
        <ele>2278.4619140625</ele>
        <time>2020-08-15T10:33:36Z</time>
      </trkpt>
      <trkpt lat="44.8459" lon="6.17915">
        <ele>2276.05859375</ele>
        <time>2020-08-15T10:34:11Z</time>
      </trkpt>
      <trkpt lat="44.8459" lon="6.17924">
        <ele>2275.0971679688</ele>
        <time>2020-08-15T10:34:56Z</time>
      </trkpt>
      <trkpt lat="44.84594" lon="6.17931">
        <ele>2275.0971679688</ele>
        <time>2020-08-15T10:35:24Z</time>
      </trkpt>
      <trkpt lat="44.84604" lon="6.17945">
        <ele>2275.5778808594</ele>
        <time>2020-08-15T10:35:49Z</time>
      </trkpt>
      <trkpt lat="44.84606" lon="6.17959">
        <ele>2275.5778808594</ele>
        <time>2020-08-15T10:36:11Z</time>
      </trkpt>
      <trkpt lat="44.84609" lon="6.1797">
        <ele>2276.5393066406</ele>
        <time>2020-08-15T10:36:37Z</time>
      </trkpt>
      <trkpt lat="44.84617" lon="6.17986">
        <ele>2277.9812011719</ele>
        <time>2020-08-15T10:36:55Z</time>
      </trkpt>
      <trkpt lat="44.84632" lon="6.1801">
        <ele>2278.9423828125</ele>
        <time>2020-08-15T10:37:21Z</time>
      </trkpt>
      <trkpt lat="44.84644" lon="6.18025">
        <ele>2281.345703125</ele>
        <time>2020-08-15T10:37:45Z</time>
      </trkpt>
      <trkpt lat="44.84652" lon="6.1804">
        <ele>2281.345703125</ele>
        <time>2020-08-15T10:38:04Z</time>
      </trkpt>
      <trkpt lat="44.84654" lon="6.18041">
        <ele>2279.9038085938</ele>
        <time>2020-08-15T10:38:46Z</time>
      </trkpt>
      <trkpt lat="44.84652" lon="6.18042">
        <ele>2278.4619140625</ele>
        <time>2020-08-15T11:25:10Z</time>
      </trkpt>
      <trkpt lat="44.84652" lon="6.18058">
        <ele>2278.4619140625</ele>
        <time>2020-08-15T11:26:24Z</time>
      </trkpt>
      <trkpt lat="44.84646" lon="6.18087">
        <ele>2288.5559082031</ele>
        <time>2020-08-15T11:26:45Z</time>
      </trkpt>
      <trkpt lat="44.84638" lon="6.1811">
        <ele>2296.2463378906</ele>
        <time>2020-08-15T11:27:04Z</time>
      </trkpt>
      <trkpt lat="44.84638" lon="6.18132">
        <ele>2298.1687011719</ele>
        <time>2020-08-15T11:27:23Z</time>
      </trkpt>
      <trkpt lat="44.84641" lon="6.18146">
        <ele>2296.7268066406</ele>
        <time>2020-08-15T11:27:41Z</time>
      </trkpt>
      <trkpt lat="44.84642" lon="6.18169">
        <ele>2298.1687011719</ele>
        <time>2020-08-15T11:28:03Z</time>
      </trkpt>
      <trkpt lat="44.84646" lon="6.18182">
        <ele>2297.2075195312</ele>
        <time>2020-08-15T11:28:24Z</time>
      </trkpt>
      <trkpt lat="44.84643" lon="6.18199">
        <ele>2301.0529785156</ele>
        <time>2020-08-15T11:31:17Z</time>
      </trkpt>
      <trkpt lat="44.8465" lon="6.18231">
        <ele>2298.6494140625</ele>
        <time>2020-08-15T11:31:42Z</time>
      </trkpt>
      <trkpt lat="44.84664" lon="6.18237">
        <ele>2295.765625</ele>
        <time>2020-08-15T11:31:59Z</time>
      </trkpt>
      <trkpt lat="44.84675" lon="6.18247">
        <ele>2296.2463378906</ele>
        <time>2020-08-15T11:32:16Z</time>
      </trkpt>
      <trkpt lat="44.84665" lon="6.18267">
        <ele>2298.6494140625</ele>
        <time>2020-08-15T11:32:33Z</time>
      </trkpt>
      <trkpt lat="44.84658" lon="6.18282">
        <ele>2301.0529785156</ele>
        <time>2020-08-15T11:32:53Z</time>
      </trkpt>
      <trkpt lat="44.84661" lon="6.18294">
        <ele>2299.1301269531</ele>
        <time>2020-08-15T11:33:13Z</time>
      </trkpt>
      <trkpt lat="44.84664" lon="6.18325">
        <ele>2297.6882324219</ele>
        <time>2020-08-15T11:33:39Z</time>
      </trkpt>
      <trkpt lat="44.84657" lon="6.18335">
        <ele>2296.7268066406</ele>
        <time>2020-08-15T11:33:49Z</time>
      </trkpt>
      <trkpt lat="44.84644" lon="6.1836">
        <ele>2299.1301269531</ele>
        <time>2020-08-15T11:34:12Z</time>
      </trkpt>
      <trkpt lat="44.84643" lon="6.18392">
        <ele>2298.1687011719</ele>
        <time>2020-08-15T11:34:35Z</time>
      </trkpt>
      <trkpt lat="44.84642" lon="6.18413">
        <ele>2294.8041992188</ele>
        <time>2020-08-15T11:34:52Z</time>
      </trkpt>
      <trkpt lat="44.84642" lon="6.18427">
        <ele>2295.2849121094</ele>
        <time>2020-08-15T11:35:06Z</time>
      </trkpt>
      <trkpt lat="44.84634" lon="6.18452">
        <ele>2295.2849121094</ele>
        <time>2020-08-15T11:35:27Z</time>
      </trkpt>
      <trkpt lat="44.84635" lon="6.18471">
        <ele>2297.2075195312</ele>
        <time>2020-08-15T11:35:48Z</time>
      </trkpt>
      <trkpt lat="44.84622" lon="6.1848">
        <ele>2297.6882324219</ele>
        <time>2020-08-15T11:36:05Z</time>
      </trkpt>
      <trkpt lat="44.84613" lon="6.18496">
        <ele>2298.1687011719</ele>
        <time>2020-08-15T11:36:23Z</time>
      </trkpt>
      <trkpt lat="44.84608" lon="6.18518">
        <ele>2294.8041992188</ele>
        <time>2020-08-15T11:36:41Z</time>
      </trkpt>
      <trkpt lat="44.84599" lon="6.18534">
        <ele>2296.2463378906</ele>
        <time>2020-08-15T11:36:59Z</time>
      </trkpt>
      <trkpt lat="44.84591" lon="6.18546">
        <ele>2294.3234863281</ele>
        <time>2020-08-15T11:37:20Z</time>
      </trkpt>
      <trkpt lat="44.84586" lon="6.18561">
        <ele>2292.8815917969</ele>
        <time>2020-08-15T11:37:39Z</time>
      </trkpt>
      <trkpt lat="44.84578" lon="6.18584">
        <ele>2290.958984375</ele>
        <time>2020-08-15T11:38:00Z</time>
      </trkpt>
      <trkpt lat="44.84571" lon="6.186">
        <ele>2291.4396972656</ele>
        <time>2020-08-15T11:38:19Z</time>
      </trkpt>
      <trkpt lat="44.84561" lon="6.18619">
        <ele>2292.4011230469</ele>
        <time>2020-08-15T11:38:37Z</time>
      </trkpt>
      <trkpt lat="44.84559" lon="6.18637">
        <ele>2290.958984375</ele>
        <time>2020-08-15T11:38:54Z</time>
      </trkpt>
      <trkpt lat="44.84558" lon="6.18652">
        <ele>2291.9204101562</ele>
        <time>2020-08-15T11:39:12Z</time>
      </trkpt>
      <trkpt lat="44.84553" lon="6.18667">
        <ele>2292.8815917969</ele>
        <time>2020-08-15T11:39:35Z</time>
      </trkpt>
      <trkpt lat="44.84548" lon="6.18684">
        <ele>2293.8430175781</ele>
        <time>2020-08-15T11:39:57Z</time>
      </trkpt>
      <trkpt lat="44.84542" lon="6.18702">
        <ele>2295.2849121094</ele>
        <time>2020-08-15T11:40:21Z</time>
      </trkpt>
      <trkpt lat="44.84536" lon="6.18706">
        <ele>2295.765625</ele>
        <time>2020-08-15T11:40:41Z</time>
      </trkpt>
      <trkpt lat="44.84534" lon="6.18708">
        <ele>2291.9204101562</ele>
        <time>2020-08-15T11:41:01Z</time>
      </trkpt>
      <trkpt lat="44.84529" lon="6.1872">
        <ele>2290.958984375</ele>
        <time>2020-08-15T11:41:22Z</time>
      </trkpt>
      <trkpt lat="44.84519" lon="6.1873">
        <ele>2287.5944824219</ele>
        <time>2020-08-15T11:41:40Z</time>
      </trkpt>
      <trkpt lat="44.84514" lon="6.1874">
        <ele>2284.7106933594</ele>
        <time>2020-08-15T11:41:55Z</time>
      </trkpt>
      <trkpt lat="44.84504" lon="6.18755">
        <ele>2280.3845214844</ele>
        <time>2020-08-15T11:42:15Z</time>
      </trkpt>
      <trkpt lat="44.84496" lon="6.18769">
        <ele>2280.3845214844</ele>
        <time>2020-08-15T11:42:34Z</time>
      </trkpt>
      <trkpt lat="44.84485" lon="6.18776">
        <ele>2277.0200195312</ele>
        <time>2020-08-15T11:42:53Z</time>
      </trkpt>
      <trkpt lat="44.8447" lon="6.18783">
        <ele>2277.9812011719</ele>
        <time>2020-08-15T11:43:16Z</time>
      </trkpt>
      <trkpt lat="44.84466" lon="6.18789">
        <ele>2271.7326660156</ele>
        <time>2020-08-15T11:43:40Z</time>
      </trkpt>
      <trkpt lat="44.84454" lon="6.18793">
        <ele>2268.8488769531</ele>
        <time>2020-08-15T11:44:25Z</time>
      </trkpt>
      <trkpt lat="44.84447" lon="6.18795">
        <ele>2269.3295898438</ele>
        <time>2020-08-15T11:44:42Z</time>
      </trkpt>
      <trkpt lat="44.84438" lon="6.18791">
        <ele>2269.3295898438</ele>
        <time>2020-08-15T11:45:03Z</time>
      </trkpt>
      <trkpt lat="44.84438" lon="6.18794">
        <ele>2265.4841308594</ele>
        <time>2020-08-15T11:45:38Z</time>
      </trkpt>
      <trkpt lat="44.84435" lon="6.18807">
        <ele>2263.5612792969</ele>
        <time>2020-08-15T11:47:30Z</time>
      </trkpt>
      <trkpt lat="44.84429" lon="6.1882">
        <ele>2263.0808105469</ele>
        <time>2020-08-15T11:47:51Z</time>
      </trkpt>
      <trkpt lat="44.84426" lon="6.18828">
        <ele>2259.7160644531</ele>
        <time>2020-08-15T11:48:30Z</time>
      </trkpt>
      <trkpt lat="44.84418" lon="6.18842">
        <ele>2258.7548828125</ele>
        <time>2020-08-15T11:48:50Z</time>
      </trkpt>
      <trkpt lat="44.84407" lon="6.18856">
        <ele>2259.7160644531</ele>
        <time>2020-08-15T11:49:13Z</time>
      </trkpt>
      <trkpt lat="44.84404" lon="6.18873">
        <ele>2253.4677734375</ele>
        <time>2020-08-15T11:49:37Z</time>
      </trkpt>
      <trkpt lat="44.84403" lon="6.18874">
        <ele>2252.0256347656</ele>
        <time>2020-08-15T11:50:20Z</time>
      </trkpt>
      <trkpt lat="44.84398" lon="6.1887">
        <ele>2251.544921875</ele>
        <time>2020-08-15T11:52:08Z</time>
      </trkpt>
      <trkpt lat="44.8439" lon="6.18856">
        <ele>2246.2578125</ele>
        <time>2020-08-15T11:52:40Z</time>
      </trkpt>
      <trkpt lat="44.84386" lon="6.18854">
        <ele>2240.9704589844</ele>
        <time>2020-08-15T11:52:58Z</time>
      </trkpt>
      <trkpt lat="44.84378" lon="6.18846">
        <ele>2235.6831054688</ele>
        <time>2020-08-15T11:53:19Z</time>
      </trkpt>
      <trkpt lat="44.84371" lon="6.18829">
        <ele>2230.3959960938</ele>
        <time>2020-08-15T11:53:43Z</time>
      </trkpt>
      <trkpt lat="44.84372" lon="6.18828">
        <ele>2225.5893554688</ele>
        <time>2020-08-15T11:53:58Z</time>
      </trkpt>
      <trkpt lat="44.84367" lon="6.1882">
        <ele>2222.7055664062</ele>
        <time>2020-08-15T11:54:20Z</time>
      </trkpt>
      <trkpt lat="44.84363" lon="6.18824">
        <ele>2225.1086425781</ele>
        <time>2020-08-15T11:57:25Z</time>
      </trkpt>
      <trkpt lat="44.84361" lon="6.18835">
        <ele>2224.6281738281</ele>
        <time>2020-08-15T11:57:43Z</time>
      </trkpt>
      <trkpt lat="44.84357" lon="6.18842">
        <ele>2226.0700683594</ele>
        <time>2020-08-15T11:57:59Z</time>
      </trkpt>
      <trkpt lat="44.84348" lon="6.18855">
        <ele>2226.0700683594</ele>
        <time>2020-08-15T11:58:18Z</time>
      </trkpt>
      <trkpt lat="44.84347" lon="6.18861">
        <ele>2225.1086425781</ele>
        <time>2020-08-15T11:58:36Z</time>
      </trkpt>
      <trkpt lat="44.8435" lon="6.18869">
        <ele>2224.6281738281</ele>
        <time>2020-08-15T11:58:58Z</time>
      </trkpt>
      <trkpt lat="44.84356" lon="6.18877">
        <ele>2227.5119628906</ele>
        <time>2020-08-15T11:59:31Z</time>
      </trkpt>
      <trkpt lat="44.84357" lon="6.18893">
        <ele>2233.2797851562</ele>
        <time>2020-08-15T12:00:04Z</time>
      </trkpt>
      <trkpt lat="44.84364" lon="6.18894">
        <ele>2233.7604980469</ele>
        <time>2020-08-15T12:00:27Z</time>
      </trkpt>
      <trkpt lat="44.84365" lon="6.18905">
        <ele>2238.5673828125</ele>
        <time>2020-08-15T12:00:53Z</time>
      </trkpt>
      <trkpt lat="44.84357" lon="6.18918">
        <ele>2244.3349609375</ele>
        <time>2020-08-15T12:01:20Z</time>
      </trkpt>
      <trkpt lat="44.84353" lon="6.18931">
        <ele>2246.73828125</ele>
        <time>2020-08-15T12:01:44Z</time>
      </trkpt>
      <trkpt lat="44.84348" lon="6.18937">
        <ele>2250.1030273438</ele>
        <time>2020-08-15T12:02:03Z</time>
      </trkpt>
      <trkpt lat="44.84342" lon="6.18945">
        <ele>2252.5063476562</ele>
        <time>2020-08-15T12:02:27Z</time>
      </trkpt>
      <trkpt lat="44.84336" lon="6.18956">
        <ele>2253.9484863281</ele>
        <time>2020-08-15T12:02:58Z</time>
      </trkpt>
      <trkpt lat="44.84333" lon="6.18964">
        <ele>2253.4677734375</ele>
        <time>2020-08-15T12:03:18Z</time>
      </trkpt>
      <trkpt lat="44.84328" lon="6.1897">
        <ele>2254.9096679688</ele>
        <time>2020-08-15T12:03:39Z</time>
      </trkpt>
      <trkpt lat="44.84326" lon="6.1898">
        <ele>2259.7160644531</ele>
        <time>2020-08-15T12:04:08Z</time>
      </trkpt>
      <trkpt lat="44.8432" lon="6.18995">
        <ele>2262.1193847656</ele>
        <time>2020-08-15T12:04:36Z</time>
      </trkpt>
      <trkpt lat="44.8431" lon="6.19006">
        <ele>2265.9645996094</ele>
        <time>2020-08-15T12:05:04Z</time>
      </trkpt>
      <trkpt lat="44.84303" lon="6.19017">
        <ele>2268.8488769531</ele>
        <time>2020-08-15T12:05:33Z</time>
      </trkpt>
      <trkpt lat="44.84294" lon="6.19027">
        <ele>2272.6940917969</ele>
        <time>2020-08-15T12:05:58Z</time>
      </trkpt>
      <trkpt lat="44.84285" lon="6.19031">
        <ele>2275.0971679688</ele>
        <time>2020-08-15T12:06:22Z</time>
      </trkpt>
      <trkpt lat="44.84277" lon="6.1904">
        <ele>2281.345703125</ele>
        <time>2020-08-15T12:06:48Z</time>
      </trkpt>
      <trkpt lat="44.84268" lon="6.19051">
        <ele>2282.7875976562</ele>
        <time>2020-08-15T12:07:16Z</time>
      </trkpt>
      <trkpt lat="44.84256" lon="6.19057">
        <ele>2287.1137695312</ele>
        <time>2020-08-15T12:07:53Z</time>
      </trkpt>
      <trkpt lat="44.84246" lon="6.19064">
        <ele>2290.4782714844</ele>
        <time>2020-08-15T12:08:22Z</time>
      </trkpt>
      <trkpt lat="44.84233" lon="6.19063">
        <ele>2296.7268066406</ele>
        <time>2020-08-15T12:08:58Z</time>
      </trkpt>
      <trkpt lat="44.84235" lon="6.19068">
        <ele>2298.1687011719</ele>
        <time>2020-08-15T12:09:20Z</time>
      </trkpt>
      <trkpt lat="44.84246" lon="6.19086">
        <ele>2298.6494140625</ele>
        <time>2020-08-15T12:10:41Z</time>
      </trkpt>
      <trkpt lat="44.84257" lon="6.19097">
        <ele>2305.37890625</ele>
        <time>2020-08-15T12:11:20Z</time>
      </trkpt>
      <trkpt lat="44.84263" lon="6.19105">
        <ele>2313.0693359375</ele>
        <time>2020-08-15T12:11:47Z</time>
      </trkpt>
      <trkpt lat="44.84273" lon="6.19115">
        <ele>2322.2019042969</ele>
        <time>2020-08-15T12:12:18Z</time>
      </trkpt>
      <trkpt lat="44.84276" lon="6.19114">
        <ele>2327.4890136719</ele>
        <time>2020-08-15T12:12:51Z</time>
      </trkpt>
      <trkpt lat="44.84279" lon="6.19112">
        <ele>2332.7763671875</ele>
        <time>2020-08-15T12:13:59Z</time>
      </trkpt>
      <trkpt lat="44.84292" lon="6.19131">
        <ele>2332.7763671875</ele>
        <time>2020-08-15T12:14:54Z</time>
      </trkpt>
      <trkpt lat="44.84304" lon="6.19155">
        <ele>2327.0085449219</ele>
        <time>2020-08-15T12:15:33Z</time>
      </trkpt>
      <trkpt lat="44.84318" lon="6.19171">
        <ele>2324.6052246094</ele>
        <time>2020-08-15T12:16:15Z</time>
      </trkpt>
      <trkpt lat="44.84326" lon="6.19174">
        <ele>2327.4890136719</ele>
        <time>2020-08-15T12:16:54Z</time>
      </trkpt>
      <trkpt lat="44.84348" lon="6.19181">
        <ele>2330.8537597656</ele>
        <time>2020-08-15T12:17:40Z</time>
      </trkpt>
      <trkpt lat="44.84357" lon="6.19182">
        <ele>2336.6215820312</ele>
        <time>2020-08-15T12:18:07Z</time>
      </trkpt>
      <trkpt lat="44.84345" lon="6.19185">
        <ele>2347.6767578125</ele>
        <time>2020-08-15T12:20:19Z</time>
      </trkpt>
      <trkpt lat="44.8435" lon="6.19193">
        <ele>2350.0803222656</ele>
        <time>2020-08-15T12:20:38Z</time>
      </trkpt>
      <trkpt lat="44.84369" lon="6.19196">
        <ele>2349.599609375</ele>
        <time>2020-08-15T12:21:15Z</time>
      </trkpt>
      <trkpt lat="44.8438" lon="6.19194">
        <ele>2348.6381835938</ele>
        <time>2020-08-15T12:21:53Z</time>
      </trkpt>
      <trkpt lat="44.84393" lon="6.19194">
        <ele>2357.2900390625</ele>
        <time>2020-08-15T12:22:36Z</time>
      </trkpt>
      <trkpt lat="44.8439" lon="6.19193">
        <ele>2367.3837890625</ele>
        <time>2020-08-15T12:23:35Z</time>
      </trkpt>
      <trkpt lat="44.8439" lon="6.19197">
        <ele>2368.3452148438</ele>
        <time>2020-08-15T12:24:43Z</time>
      </trkpt>
      <trkpt lat="44.84383" lon="6.19214">
        <ele>2374.59375</ele>
        <time>2020-08-15T12:25:12Z</time>
      </trkpt>
      <trkpt lat="44.84372" lon="6.19228">
        <ele>2377.9582519531</ele>
        <time>2020-08-15T12:25:45Z</time>
      </trkpt>
      <trkpt lat="44.84364" lon="6.19242">
        <ele>2384.20703125</ele>
        <time>2020-08-15T12:26:25Z</time>
      </trkpt>
      <trkpt lat="44.84358" lon="6.19257">
        <ele>2387.0908203125</ele>
        <time>2020-08-15T12:26:56Z</time>
      </trkpt>
      <trkpt lat="44.84367" lon="6.19272">
        <ele>2386.6101074219</ele>
        <time>2020-08-15T12:27:34Z</time>
      </trkpt>
      <trkpt lat="44.84373" lon="6.19269">
        <ele>2383.7263183594</ele>
        <time>2020-08-15T12:28:13Z</time>
      </trkpt>
      <trkpt lat="44.84381" lon="6.19269">
        <ele>2381.8037109375</ele>
        <time>2020-08-15T12:28:49Z</time>
      </trkpt>
      <trkpt lat="44.84405" lon="6.19281">
        <ele>2381.8037109375</ele>
        <time>2020-08-15T12:31:04Z</time>
      </trkpt>
      <trkpt lat="44.84419" lon="6.19283">
        <ele>2385.1682128906</ele>
        <time>2020-08-15T12:31:42Z</time>
      </trkpt>
      <trkpt lat="44.84436" lon="6.19287">
        <ele>2391.4167480469</ele>
        <time>2020-08-15T12:32:32Z</time>
      </trkpt>
      <trkpt lat="44.84446" lon="6.19289">
        <ele>2403.4333496094</ele>
        <time>2020-08-15T12:33:10Z</time>
      </trkpt>
      <trkpt lat="44.8444" lon="6.19296">
        <ele>2414.9692382812</ele>
        <time>2020-08-15T12:33:39Z</time>
      </trkpt>
      <trkpt lat="44.84431" lon="6.19306">
        <ele>2426.0241699219</ele>
        <time>2020-08-15T12:34:04Z</time>
      </trkpt>
      <trkpt lat="44.84423" lon="6.19316">
        <ele>2434.1955566406</ele>
        <time>2020-08-15T12:34:30Z</time>
      </trkpt>
      <trkpt lat="44.84424" lon="6.19329">
        <ele>2438.0407714844</ele>
        <time>2020-08-15T12:35:07Z</time>
      </trkpt>
      <trkpt lat="44.84425" lon="6.19321">
        <ele>2444.7700195312</ele>
        <time>2020-08-15T12:36:15Z</time>
      </trkpt>
      <trkpt lat="44.84429" lon="6.19313">
        <ele>2448.615234375</ele>
        <time>2020-08-15T12:37:11Z</time>
      </trkpt>
      <trkpt lat="44.84442" lon="6.1933">
        <ele>2446.2121582031</ele>
        <time>2020-08-15T12:38:38Z</time>
      </trkpt>
      <trkpt lat="44.84445" lon="6.19342">
        <ele>2448.615234375</ele>
        <time>2020-08-15T12:40:23Z</time>
      </trkpt>
      <trkpt lat="44.84453" lon="6.19338">
        <ele>2451.9797363281</ele>
        <time>2020-08-15T12:40:51Z</time>
      </trkpt>
      <trkpt lat="44.8447" lon="6.19337">
        <ele>2456.7863769531</ele>
        <time>2020-08-15T12:41:30Z</time>
      </trkpt>
      <trkpt lat="44.84479" lon="6.19328">
        <ele>2458.708984375</ele>
        <time>2020-08-15T12:42:00Z</time>
      </trkpt>
      <trkpt lat="44.8449" lon="6.19329">
        <ele>2463.9963378906</ele>
        <time>2020-08-15T12:42:46Z</time>
      </trkpt>
      <trkpt lat="44.84506" lon="6.19327">
        <ele>2468.322265625</ele>
        <time>2020-08-15T12:43:22Z</time>
      </trkpt>
      <trkpt lat="44.84513" lon="6.19318">
        <ele>2470.7255859375</ele>
        <time>2020-08-15T12:43:51Z</time>
      </trkpt>
      <trkpt lat="44.84517" lon="6.193">
        <ele>2474.5708007812</ele>
        <time>2020-08-15T12:44:30Z</time>
      </trkpt>
      <trkpt lat="44.84534" lon="6.19293">
        <ele>2474.0900878906</ele>
        <time>2020-08-15T12:52:05Z</time>
      </trkpt>
      <trkpt lat="44.84537" lon="6.19306">
        <ele>2480.3388671875</ele>
        <time>2020-08-15T12:52:33Z</time>
      </trkpt>
      <trkpt lat="44.84538" lon="6.19328">
        <ele>2485.1452636719</ele>
        <time>2020-08-15T12:53:15Z</time>
      </trkpt>
      <trkpt lat="44.84537" lon="6.19352">
        <ele>2489.4711914062</ele>
        <time>2020-08-15T12:53:50Z</time>
      </trkpt>
      <trkpt lat="44.84535" lon="6.19362">
        <ele>2494.2778320312</ele>
        <time>2020-08-15T12:54:17Z</time>
      </trkpt>
      <trkpt lat="44.8454" lon="6.19364">
        <ele>2493.7973632812</ele>
        <time>2020-08-15T12:54:56Z</time>
      </trkpt>
      <trkpt lat="44.84541" lon="6.19357">
        <ele>2492.35546875</ele>
        <time>2020-08-15T12:55:48Z</time>
      </trkpt>
      <trkpt lat="44.84549" lon="6.19352">
        <ele>2492.35546875</ele>
        <time>2020-08-15T12:56:44Z</time>
      </trkpt>
      <trkpt lat="44.84553" lon="6.19348">
        <ele>2495.7199707031</ele>
        <time>2020-08-15T12:57:14Z</time>
      </trkpt>
      <trkpt lat="44.84566" lon="6.19346">
        <ele>2497.642578125</ele>
        <time>2020-08-15T12:57:49Z</time>
      </trkpt>
      <trkpt lat="44.84571" lon="6.19339">
        <ele>2498.6037597656</ele>
        <time>2020-08-15T12:58:20Z</time>
      </trkpt>
      <trkpt lat="44.84581" lon="6.1934">
        <ele>2499.5651855469</ele>
        <time>2020-08-15T12:58:45Z</time>
      </trkpt>
      <trkpt lat="44.84595" lon="6.19331">
        <ele>2501.4877929688</ele>
        <time>2020-08-15T12:59:14Z</time>
      </trkpt>
      <trkpt lat="44.84602" lon="6.19325">
        <ele>2506.7749023438</ele>
        <time>2020-08-15T12:59:40Z</time>
      </trkpt>
      <trkpt lat="44.84607" lon="6.19308">
        <ele>2514.9462890625</ele>
        <time>2020-08-15T13:00:27Z</time>
      </trkpt>
      <trkpt lat="44.84609" lon="6.19304">
        <ele>2516.8688964844</ele>
        <time>2020-08-15T13:00:53Z</time>
      </trkpt>
      <trkpt lat="44.84616" lon="6.19295">
        <ele>2518.7915039062</ele>
        <time>2020-08-15T13:01:17Z</time>
      </trkpt>
      <trkpt lat="44.84621" lon="6.19291">
        <ele>2521.6752929688</ele>
        <time>2020-08-15T13:01:40Z</time>
      </trkpt>
      <trkpt lat="44.84631" lon="6.19287">
        <ele>2522.63671875</ele>
        <time>2020-08-15T13:02:09Z</time>
      </trkpt>
      <trkpt lat="44.84653" lon="6.19287">
        <ele>2525.0400390625</ele>
        <time>2020-08-15T13:04:06Z</time>
      </trkpt>
      <trkpt lat="44.84665" lon="6.19297">
        <ele>2523.1174316406</ele>
        <time>2020-08-15T13:04:39Z</time>
      </trkpt>
      <trkpt lat="44.84673" lon="6.19293">
        <ele>2526.0014648438</ele>
        <time>2020-08-15T13:05:17Z</time>
      </trkpt>
      <trkpt lat="44.84661" lon="6.19297">
        <ele>2532.25</ele>
        <time>2020-08-15T13:08:06Z</time>
      </trkpt>
      <trkpt lat="44.84664" lon="6.19298">
        <ele>2531.2885742188</ele>
        <time>2020-08-15T13:12:22Z</time>
      </trkpt>
      <trkpt lat="44.84664" lon="6.19298">
        <ele>2531.2885742188</ele>
        <time>2020-08-15T13:13:23Z</time>
      </trkpt>
      <trkpt lat="44.84661" lon="6.19295">
        <ele>2533.2111816406</ele>
        <time>2020-08-15T13:23:26Z</time>
      </trkpt>
      <trkpt lat="44.8466" lon="6.19294">
        <ele>2534.6533203125</ele>
        <time>2020-08-15T13:23:45Z</time>
      </trkpt>
      <trkpt lat="44.84658" lon="6.19293">
        <ele>2535.6145019531</ele>
        <time>2020-08-15T13:24:17Z</time>
      </trkpt>
      <trkpt lat="44.84659" lon="6.19295">
        <ele>2536.0952148438</ele>
        <time>2020-08-15T13:26:06Z</time>
      </trkpt>
      <trkpt lat="44.84661" lon="6.19294">
        <ele>2536.5756835938</ele>
        <time>2020-08-15T13:26:27Z</time>
      </trkpt>
      <trkpt lat="44.84675" lon="6.19299">
        <ele>2540.9018554688</ele>
        <time>2020-08-15T13:26:50Z</time>
      </trkpt>
      <trkpt lat="44.84684" lon="6.19293">
        <ele>2544.2663574219</ele>
        <time>2020-08-15T13:27:08Z</time>
      </trkpt>
      <trkpt lat="44.84693" lon="6.19288">
        <ele>2547.150390625</ele>
        <time>2020-08-15T13:27:30Z</time>
      </trkpt>
      <trkpt lat="44.84702" lon="6.1928">
        <ele>2549.0729980469</ele>
        <time>2020-08-15T13:27:57Z</time>
      </trkpt>
      <trkpt lat="44.84709" lon="6.19275">
        <ele>2550.0344238281</ele>
        <time>2020-08-15T13:28:12Z</time>
      </trkpt>
      <trkpt lat="44.84718" lon="6.19275">
        <ele>2551.9567871094</ele>
        <time>2020-08-15T13:28:28Z</time>
      </trkpt>
      <trkpt lat="44.8472" lon="6.19286">
        <ele>2551.4763183594</ele>
        <time>2020-08-15T13:28:48Z</time>
      </trkpt>
      <trkpt lat="44.84721" lon="6.19304">
        <ele>2552.4375</ele>
        <time>2020-08-15T13:29:12Z</time>
      </trkpt>
      <trkpt lat="44.8472" lon="6.19313">
        <ele>2554.8408203125</ele>
        <time>2020-08-15T13:29:34Z</time>
      </trkpt>
      <trkpt lat="44.8472" lon="6.19324">
        <ele>2557.2443847656</ele>
        <time>2020-08-15T13:29:53Z</time>
      </trkpt>
      <trkpt lat="44.84723" lon="6.19319">
        <ele>2559.6474609375</ele>
        <time>2020-08-15T13:30:12Z</time>
      </trkpt>
      <trkpt lat="44.8473" lon="6.1931">
        <ele>2563.0122070312</ele>
        <time>2020-08-15T13:30:35Z</time>
      </trkpt>
      <trkpt lat="44.84733" lon="6.19311">
        <ele>2568.2993164062</ele>
        <time>2020-08-15T13:30:57Z</time>
      </trkpt>
      <trkpt lat="44.84737" lon="6.19316">
        <ele>2570.2219238281</ele>
        <time>2020-08-15T13:31:17Z</time>
      </trkpt>
      <trkpt lat="44.8474" lon="6.19331">
        <ele>2574.5480957031</ele>
        <time>2020-08-15T13:31:40Z</time>
      </trkpt>
      <trkpt lat="44.8474" lon="6.19349">
        <ele>2575.5092773438</ele>
        <time>2020-08-15T13:32:03Z</time>
      </trkpt>
      <trkpt lat="44.8474" lon="6.19351">
        <ele>2574.0673828125</ele>
        <time>2020-08-15T13:32:23Z</time>
      </trkpt>
      <trkpt lat="44.84743" lon="6.19348">
        <ele>2573.5866699219</ele>
        <time>2020-08-15T13:32:34Z</time>
      </trkpt>
      <trkpt lat="44.84749" lon="6.19341">
        <ele>2572.6254882812</ele>
        <time>2020-08-15T13:32:48Z</time>
      </trkpt>
      <trkpt lat="44.84758" lon="6.19331">
        <ele>2574.0673828125</ele>
        <time>2020-08-15T13:33:09Z</time>
      </trkpt>
      <trkpt lat="44.84761" lon="6.19334">
        <ele>2578.3933105469</ele>
        <time>2020-08-15T13:33:27Z</time>
      </trkpt>
      <trkpt lat="44.84761" lon="6.19348">
        <ele>2582.2385253906</ele>
        <time>2020-08-15T13:33:47Z</time>
      </trkpt>
      <trkpt lat="44.84758" lon="6.19357">
        <ele>2588.0065917969</ele>
        <time>2020-08-15T13:34:14Z</time>
      </trkpt>
      <trkpt lat="44.84759" lon="6.19358">
        <ele>2587.5256347656</ele>
        <time>2020-08-15T13:34:36Z</time>
      </trkpt>
      <trkpt lat="44.84756" lon="6.19359">
        <ele>2588.0065917969</ele>
        <time>2020-08-15T13:39:11Z</time>
      </trkpt>
      <trkpt lat="44.84755" lon="6.19361">
        <ele>2586.5642089844</ele>
        <time>2020-08-15T13:39:37Z</time>
      </trkpt>
      <trkpt lat="44.84754" lon="6.19365">
        <ele>2584.6418457031</ele>
        <time>2020-08-15T13:40:04Z</time>
      </trkpt>
      <trkpt lat="44.84752" lon="6.19368">
        <ele>2584.6418457031</ele>
        <time>2020-08-15T13:40:27Z</time>
      </trkpt>
      <trkpt lat="44.84749" lon="6.19368">
        <ele>2586.0837402344</ele>
        <time>2020-08-15T13:40:43Z</time>
      </trkpt>
      <trkpt lat="44.84746" lon="6.19371">
        <ele>2586.5642089844</ele>
        <time>2020-08-15T13:41:04Z</time>
      </trkpt>
      <trkpt lat="44.8474" lon="6.19376">
        <ele>2590.4096679688</ele>
        <time>2020-08-15T13:41:27Z</time>
      </trkpt>
      <trkpt lat="44.84737" lon="6.19388">
        <ele>2591.37109375</ele>
        <time>2020-08-15T13:41:48Z</time>
      </trkpt>
      <trkpt lat="44.84731" lon="6.19388">
        <ele>2594.7355957031</ele>
        <time>2020-08-15T13:42:01Z</time>
      </trkpt>
      <trkpt lat="44.84728" lon="6.19396">
        <ele>2596.177734375</ele>
        <time>2020-08-15T13:42:31Z</time>
      </trkpt>
      <trkpt lat="44.84722" lon="6.19404">
        <ele>2596.658203125</ele>
        <time>2020-08-15T13:42:48Z</time>
      </trkpt>
      <trkpt lat="44.84714" lon="6.19411">
        <ele>2601.9453125</ele>
        <time>2020-08-15T13:43:03Z</time>
      </trkpt>
      <trkpt lat="44.84707" lon="6.19421">
        <ele>2606.271484375</ele>
        <time>2020-08-15T13:43:25Z</time>
      </trkpt>
      <trkpt lat="44.84702" lon="6.19437">
        <ele>2613.0009765625</ele>
        <time>2020-08-15T13:43:48Z</time>
      </trkpt>
      <trkpt lat="44.84701" lon="6.19441">
        <ele>2613.9624023438</ele>
        <time>2020-08-15T13:44:22Z</time>
      </trkpt>
      <trkpt lat="44.84704" lon="6.19453">
        <ele>2614.4428710938</ele>
        <time>2020-08-15T13:44:38Z</time>
      </trkpt>
      <trkpt lat="44.84706" lon="6.19471">
        <ele>2618.2880859375</ele>
        <time>2020-08-15T13:45:04Z</time>
      </trkpt>
      <trkpt lat="44.84714" lon="6.19478">
        <ele>2620.2104492188</ele>
        <time>2020-08-15T13:45:26Z</time>
      </trkpt>
      <trkpt lat="44.84722" lon="6.19468">
        <ele>2621.171875</ele>
        <time>2020-08-15T13:45:46Z</time>
      </trkpt>
      <trkpt lat="44.84732" lon="6.19465">
        <ele>2620.2104492188</ele>
        <time>2020-08-15T13:46:06Z</time>
      </trkpt>
      <trkpt lat="44.84739" lon="6.19464">
        <ele>2619.7299804688</ele>
        <time>2020-08-15T13:46:26Z</time>
      </trkpt>
      <trkpt lat="44.84743" lon="6.19459">
        <ele>2621.171875</ele>
        <time>2020-08-15T13:46:42Z</time>
      </trkpt>
      <trkpt lat="44.84749" lon="6.19458">
        <ele>2621.6528320312</ele>
        <time>2020-08-15T13:46:59Z</time>
      </trkpt>
      <trkpt lat="44.84749" lon="6.19469">
        <ele>2628.8623046875</ele>
        <time>2020-08-15T13:47:22Z</time>
      </trkpt>
      <trkpt lat="44.84747" lon="6.19481">
        <ele>2632.2270507812</ele>
        <time>2020-08-15T13:47:44Z</time>
      </trkpt>
      <trkpt lat="44.84748" lon="6.19492">
        <ele>2637.9946289062</ele>
        <time>2020-08-15T13:48:06Z</time>
      </trkpt>
      <trkpt lat="44.8475" lon="6.195">
        <ele>2643.2817382812</ele>
        <time>2020-08-15T13:48:33Z</time>
      </trkpt>
      <trkpt lat="44.84754" lon="6.19506">
        <ele>2644.724609375</ele>
        <time>2020-08-15T13:48:51Z</time>
      </trkpt>
      <trkpt lat="44.8476" lon="6.19524">
        <ele>2646.1665039062</ele>
        <time>2020-08-15T13:49:17Z</time>
      </trkpt>
      <trkpt lat="44.84764" lon="6.19535">
        <ele>2651.4536132812</ele>
        <time>2020-08-15T13:49:42Z</time>
      </trkpt>
      <trkpt lat="44.84767" lon="6.19544">
        <ele>2652.8955078125</ele>
        <time>2020-08-15T13:50:05Z</time>
      </trkpt>
      <trkpt lat="44.8477" lon="6.1956">
        <ele>2650.01171875</ele>
        <time>2020-08-15T13:50:32Z</time>
      </trkpt>
      <trkpt lat="44.84773" lon="6.19572">
        <ele>2649.5307617188</ele>
        <time>2020-08-15T13:50:50Z</time>
      </trkpt>
      <trkpt lat="44.84776" lon="6.19564">
        <ele>2645.685546875</ele>
        <time>2020-08-15T13:51:05Z</time>
      </trkpt>
      <trkpt lat="44.84781" lon="6.19567">
        <ele>2643.2817382812</ele>
        <time>2020-08-15T13:51:23Z</time>
      </trkpt>
      <trkpt lat="44.84791" lon="6.19562">
        <ele>2640.3979492188</ele>
        <time>2020-08-15T13:51:48Z</time>
      </trkpt>
      <trkpt lat="44.84795" lon="6.19555">
        <ele>2644.2436523438</ele>
        <time>2020-08-15T13:52:05Z</time>
      </trkpt>
      <trkpt lat="44.84799" lon="6.19543">
        <ele>2647.1279296875</ele>
        <time>2020-08-15T13:52:23Z</time>
      </trkpt>
      <trkpt lat="44.84804" lon="6.19535">
        <ele>2650.4921875</ele>
        <time>2020-08-15T13:52:42Z</time>
      </trkpt>
      <trkpt lat="44.84805" lon="6.19544">
        <ele>2656.2602539062</ele>
        <time>2020-08-15T13:53:06Z</time>
      </trkpt>
      <trkpt lat="44.84804" lon="6.19549">
        <ele>2662.0278320312</ele>
        <time>2020-08-15T13:53:22Z</time>
      </trkpt>
      <trkpt lat="44.84804" lon="6.19555">
        <ele>2667.3149414062</ele>
        <time>2020-08-15T13:53:37Z</time>
      </trkpt>
      <trkpt lat="44.84802" lon="6.19569">
        <ele>2674.5249023438</ele>
        <time>2020-08-15T13:54:05Z</time>
      </trkpt>
      <trkpt lat="44.84804" lon="6.19585">
        <ele>2679.8125</ele>
        <time>2020-08-15T13:54:30Z</time>
      </trkpt>
      <trkpt lat="44.848" lon="6.19605">
        <ele>2682.6962890625</ele>
        <time>2020-08-15T13:55:04Z</time>
      </trkpt>
      <trkpt lat="44.84796" lon="6.19623">
        <ele>2683.6577148438</ele>
        <time>2020-08-15T13:55:31Z</time>
      </trkpt>
      <trkpt lat="44.84796" lon="6.19633">
        <ele>2685.099609375</ele>
        <time>2020-08-15T13:55:52Z</time>
      </trkpt>
      <trkpt lat="44.84794" lon="6.19635">
        <ele>2686.0610351562</ele>
        <time>2020-08-15T13:56:14Z</time>
      </trkpt>
      <trkpt lat="44.8479" lon="6.19639">
        <ele>2688.4643554688</ele>
        <time>2020-08-15T13:57:31Z</time>
      </trkpt>
      <trkpt lat="44.84789" lon="6.19644">
        <ele>2687.5029296875</ele>
        <time>2020-08-15T13:57:52Z</time>
      </trkpt>
      <trkpt lat="44.84785" lon="6.19645">
        <ele>2688.4643554688</ele>
        <time>2020-08-15T13:58:26Z</time>
      </trkpt>
      <trkpt lat="44.84781" lon="6.19647">
        <ele>2688.9448242188</ele>
        <time>2020-08-15T13:59:21Z</time>
      </trkpt>
      <trkpt lat="44.84779" lon="6.19647">
        <ele>2690.38671875</ele>
        <time>2020-08-15T13:59:42Z</time>
      </trkpt>
      <trkpt lat="44.84777" lon="6.1965">
        <ele>2690.8676757812</ele>
        <time>2020-08-15T14:00:00Z</time>
      </trkpt>
      <trkpt lat="44.84778" lon="6.19656">
        <ele>2689.90625</ele>
        <time>2020-08-15T14:02:14Z</time>
      </trkpt>
      <trkpt lat="44.84777" lon="6.19658">
        <ele>2690.38671875</ele>
        <time>2020-08-15T14:03:23Z</time>
      </trkpt>
      <trkpt lat="44.84775" lon="6.19671">
        <ele>2689.4252929688</ele>
        <time>2020-08-15T14:03:42Z</time>
      </trkpt>
      <trkpt lat="44.84776" lon="6.19674">
        <ele>2692.3095703125</ele>
        <time>2020-08-15T14:04:09Z</time>
      </trkpt>
      <trkpt lat="44.84772" lon="6.19674">
        <ele>2698.0771484375</ele>
        <time>2020-08-15T14:05:45Z</time>
      </trkpt>
      <trkpt lat="44.84773" lon="6.19675">
        <ele>2697.5966796875</ele>
        <time>2020-08-15T14:06:21Z</time>
      </trkpt>
      <trkpt lat="44.84776" lon="6.19684">
        <ele>2694.2319335938</ele>
        <time>2020-08-15T14:06:52Z</time>
      </trkpt>
      <trkpt lat="44.84775" lon="6.19689">
        <ele>2691.3481445312</ele>
        <time>2020-08-15T14:07:16Z</time>
      </trkpt>
      <trkpt lat="44.84771" lon="6.1968">
        <ele>2689.4252929688</ele>
        <time>2020-08-15T14:07:38Z</time>
      </trkpt>
      <trkpt lat="44.84763" lon="6.19669">
        <ele>2686.0610351562</ele>
        <time>2020-08-15T14:07:56Z</time>
      </trkpt>
      <trkpt lat="44.84762" lon="6.19676">
        <ele>2685.099609375</ele>
        <time>2020-08-15T14:08:11Z</time>
      </trkpt>
      <trkpt lat="44.84764" lon="6.19685">
        <ele>2685.099609375</ele>
        <time>2020-08-15T14:08:27Z</time>
      </trkpt>
      <trkpt lat="44.84764" lon="6.19701">
        <ele>2679.8125</ele>
        <time>2020-08-15T14:08:49Z</time>
      </trkpt>
      <trkpt lat="44.84764" lon="6.19697">
        <ele>2681.7348632812</ele>
        <time>2020-08-15T14:09:17Z</time>
      </trkpt>
      <trkpt lat="44.84767" lon="6.19685">
        <ele>2679.8125</ele>
        <time>2020-08-15T14:09:34Z</time>
      </trkpt>
      <trkpt lat="44.84755" lon="6.19683">
        <ele>2680.7739257812</ele>
        <time>2020-08-15T14:09:49Z</time>
      </trkpt>
      <trkpt lat="44.84739" lon="6.19682">
        <ele>2679.33203125</ele>
        <time>2020-08-15T14:10:08Z</time>
      </trkpt>
      <trkpt lat="44.84736" lon="6.19682">
        <ele>2675.0053710938</ele>
        <time>2020-08-15T14:10:33Z</time>
      </trkpt>
      <trkpt lat="44.84734" lon="6.19682">
        <ele>2671.16015625</ele>
        <time>2020-08-15T14:11:37Z</time>
      </trkpt>
      <trkpt lat="44.84734" lon="6.19685">
        <ele>2671.16015625</ele>
        <time>2020-08-15T14:13:58Z</time>
      </trkpt>
      <trkpt lat="44.84739" lon="6.19699">
        <ele>2668.2763671875</ele>
        <time>2020-08-15T14:14:19Z</time>
      </trkpt>
      <trkpt lat="44.84738" lon="6.19705">
        <ele>2667.7958984375</ele>
        <time>2020-08-15T14:14:26Z</time>
      </trkpt>
      <trkpt lat="44.84741" lon="6.19718">
        <ele>2668.7568359375</ele>
        <time>2020-08-15T14:14:43Z</time>
      </trkpt>
      <trkpt lat="44.84742" lon="6.1973">
        <ele>2666.8344726562</ele>
        <time>2020-08-15T14:15:08Z</time>
      </trkpt>
      <trkpt lat="44.84735" lon="6.19721">
        <ele>2663.4697265625</ele>
        <time>2020-08-15T14:15:43Z</time>
      </trkpt>
      <trkpt lat="44.84726" lon="6.19722">
        <ele>2662.0278320312</ele>
        <time>2020-08-15T14:15:59Z</time>
      </trkpt>
      <trkpt lat="44.84728" lon="6.19729">
        <ele>2661.06640625</ele>
        <time>2020-08-15T14:16:07Z</time>
      </trkpt>
      <trkpt lat="44.84734" lon="6.19742">
        <ele>2659.1440429688</ele>
        <time>2020-08-15T14:16:22Z</time>
      </trkpt>
      <trkpt lat="44.84744" lon="6.19758">
        <ele>2655.298828125</ele>
        <time>2020-08-15T14:16:44Z</time>
      </trkpt>
      <trkpt lat="44.8475" lon="6.19778">
        <ele>2651.9340820312</ele>
        <time>2020-08-15T14:17:07Z</time>
      </trkpt>
      <trkpt lat="44.84759" lon="6.19797">
        <ele>2652.4150390625</ele>
        <time>2020-08-15T14:17:29Z</time>
      </trkpt>
      <trkpt lat="44.84763" lon="6.19808">
        <ele>2653.3759765625</ele>
        <time>2020-08-15T14:17:48Z</time>
      </trkpt>
      <trkpt lat="44.84769" lon="6.19814">
        <ele>2649.5307617188</ele>
        <time>2020-08-15T14:18:03Z</time>
      </trkpt>
      <trkpt lat="44.84776" lon="6.19821">
        <ele>2647.1279296875</ele>
        <time>2020-08-15T14:18:25Z</time>
      </trkpt>
      <trkpt lat="44.8478" lon="6.19826">
        <ele>2642.8012695312</ele>
        <time>2020-08-15T14:18:46Z</time>
      </trkpt>
      <trkpt lat="44.84781" lon="6.1983">
        <ele>2640.87890625</ele>
        <time>2020-08-15T14:19:26Z</time>
      </trkpt>
      <trkpt lat="44.84782" lon="6.19825">
        <ele>2639.9174804688</ele>
        <time>2020-08-15T14:19:50Z</time>
      </trkpt>
      <trkpt lat="44.84783" lon="6.19817">
        <ele>2638.4755859375</ele>
        <time>2020-08-15T14:20:54Z</time>
      </trkpt>
      <trkpt lat="44.84785" lon="6.19827">
        <ele>2638.9560546875</ele>
        <time>2020-08-15T14:21:37Z</time>
      </trkpt>
      <trkpt lat="44.8479" lon="6.19831">
        <ele>2636.072265625</ele>
        <time>2020-08-15T14:21:58Z</time>
      </trkpt>
      <trkpt lat="44.84792" lon="6.19846">
        <ele>2634.6303710938</ele>
        <time>2020-08-15T14:22:18Z</time>
      </trkpt>
      <trkpt lat="44.84793" lon="6.19851">
        <ele>2635.5913085938</ele>
        <time>2020-08-15T14:22:45Z</time>
      </trkpt>
      <trkpt lat="44.84794" lon="6.19866">
        <ele>2635.1108398438</ele>
        <time>2020-08-15T14:23:05Z</time>
      </trkpt>
      <trkpt lat="44.84789" lon="6.1988">
        <ele>2639.4370117188</ele>
        <time>2020-08-15T14:23:25Z</time>
      </trkpt>
      <trkpt lat="44.84784" lon="6.19893">
        <ele>2641.83984375</ele>
        <time>2020-08-15T14:23:41Z</time>
      </trkpt>
      <trkpt lat="44.84778" lon="6.199">
        <ele>2644.2436523438</ele>
        <time>2020-08-15T14:24:09Z</time>
      </trkpt>
      <trkpt lat="44.84778" lon="6.19906">
        <ele>2644.2436523438</ele>
        <time>2020-08-15T14:24:33Z</time>
      </trkpt>
      <trkpt lat="44.84778" lon="6.19914">
        <ele>2642.8012695312</ele>
        <time>2020-08-15T14:26:12Z</time>
      </trkpt>
      <trkpt lat="44.84775" lon="6.1992">
        <ele>2644.724609375</ele>
        <time>2020-08-15T14:26:27Z</time>
      </trkpt>
      <trkpt lat="44.84772" lon="6.19933">
        <ele>2641.359375</ele>
        <time>2020-08-15T14:26:49Z</time>
      </trkpt>
      <trkpt lat="44.84769" lon="6.19949">
        <ele>2638.9560546875</ele>
        <time>2020-08-15T14:27:08Z</time>
      </trkpt>
      <trkpt lat="44.84765" lon="6.19957">
        <ele>2637.9946289062</ele>
        <time>2020-08-15T14:27:26Z</time>
      </trkpt>
      <trkpt lat="44.8477" lon="6.19967">
        <ele>2632.7075195312</ele>
        <time>2020-08-15T14:27:45Z</time>
      </trkpt>
      <trkpt lat="44.84763" lon="6.19968">
        <ele>2632.7075195312</ele>
        <time>2020-08-15T14:28:08Z</time>
      </trkpt>
      <trkpt lat="44.84763" lon="6.19971">
        <ele>2630.78515625</ele>
        <time>2020-08-15T14:28:31Z</time>
      </trkpt>
      <trkpt lat="44.84759" lon="6.19976">
        <ele>2629.3432617188</ele>
        <time>2020-08-15T14:28:54Z</time>
      </trkpt>
      <trkpt lat="44.84758" lon="6.19985">
        <ele>2626.9399414062</ele>
        <time>2020-08-15T14:29:16Z</time>
      </trkpt>
      <trkpt lat="44.84759" lon="6.19995">
        <ele>2624.0561523438</ele>
        <time>2020-08-15T14:29:35Z</time>
      </trkpt>
      <trkpt lat="44.84762" lon="6.20004">
        <ele>2622.6137695312</ele>
        <time>2020-08-15T14:29:57Z</time>
      </trkpt>
      <trkpt lat="44.84759" lon="6.20012">
        <ele>2622.1333007812</ele>
        <time>2020-08-15T14:30:17Z</time>
      </trkpt>
      <trkpt lat="44.84754" lon="6.20025">
        <ele>2619.2495117188</ele>
        <time>2020-08-15T14:30:37Z</time>
      </trkpt>
      <trkpt lat="44.84753" lon="6.20029">
        <ele>2618.7685546875</ele>
        <time>2020-08-15T14:30:40Z</time>
      </trkpt>
      <trkpt lat="44.84746" lon="6.20044">
        <ele>2615.884765625</ele>
        <time>2020-08-15T14:30:56Z</time>
      </trkpt>
      <trkpt lat="44.84743" lon="6.20051">
        <ele>2615.884765625</ele>
        <time>2020-08-15T14:31:12Z</time>
      </trkpt>
      <trkpt lat="44.84738" lon="6.2006">
        <ele>2615.404296875</ele>
        <time>2020-08-15T14:31:34Z</time>
      </trkpt>
      <trkpt lat="44.84734" lon="6.20074">
        <ele>2612.0395507812</ele>
        <time>2020-08-15T14:31:53Z</time>
      </trkpt>
      <trkpt lat="44.8473" lon="6.20087">
        <ele>2610.5971679688</ele>
        <time>2020-08-15T14:32:10Z</time>
      </trkpt>
      <trkpt lat="44.84732" lon="6.20099">
        <ele>2607.7133789062</ele>
        <time>2020-08-15T14:32:29Z</time>
      </trkpt>
      <trkpt lat="44.84728" lon="6.20105">
        <ele>2604.3486328125</ele>
        <time>2020-08-15T14:32:49Z</time>
      </trkpt>
      <trkpt lat="44.84724" lon="6.20111">
        <ele>2600.5034179688</ele>
        <time>2020-08-15T14:33:27Z</time>
      </trkpt>
      <trkpt lat="44.84724" lon="6.20122">
        <ele>2597.6196289062</ele>
        <time>2020-08-15T14:33:44Z</time>
      </trkpt>
      <trkpt lat="44.84719" lon="6.20129">
        <ele>2594.7355957031</ele>
        <time>2020-08-15T14:34:04Z</time>
      </trkpt>
      <trkpt lat="44.84718" lon="6.20127">
        <ele>2590.4096679688</ele>
        <time>2020-08-15T14:34:26Z</time>
      </trkpt>
      <trkpt lat="44.84718" lon="6.20135">
        <ele>2584.6418457031</ele>
        <time>2020-08-15T14:35:42Z</time>
      </trkpt>
      <trkpt lat="44.84715" lon="6.20145">
        <ele>2583.6804199219</ele>
        <time>2020-08-15T14:36:02Z</time>
      </trkpt>
      <trkpt lat="44.84707" lon="6.20136">
        <ele>2579.8352050781</ele>
        <time>2020-08-15T14:36:20Z</time>
      </trkpt>
      <trkpt lat="44.84705" lon="6.20127">
        <ele>2575.0285644531</ele>
        <time>2020-08-15T14:36:41Z</time>
      </trkpt>
      <trkpt lat="44.84702" lon="6.2011">
        <ele>2570.7026367188</ele>
        <time>2020-08-15T14:37:03Z</time>
      </trkpt>
      <trkpt lat="44.84699" lon="6.20098">
        <ele>2568.7800292969</ele>
        <time>2020-08-15T14:37:20Z</time>
      </trkpt>
      <trkpt lat="44.84698" lon="6.2009">
        <ele>2566.857421875</ele>
        <time>2020-08-15T14:37:31Z</time>
      </trkpt>
      <trkpt lat="44.84691" lon="6.20074">
        <ele>2566.3767089844</ele>
        <time>2020-08-15T14:37:48Z</time>
      </trkpt>
      <trkpt lat="44.84682" lon="6.20073">
        <ele>2566.3767089844</ele>
        <time>2020-08-15T14:38:03Z</time>
      </trkpt>
      <trkpt lat="44.84678" lon="6.20094">
        <ele>2565.8959960938</ele>
        <time>2020-08-15T14:38:24Z</time>
      </trkpt>
      <trkpt lat="44.84672" lon="6.20094">
        <ele>2563.9733886719</ele>
        <time>2020-08-15T14:38:39Z</time>
      </trkpt>
      <trkpt lat="44.84663" lon="6.20096">
        <ele>2562.5314941406</ele>
        <time>2020-08-15T14:38:58Z</time>
      </trkpt>
      <trkpt lat="44.84655" lon="6.201">
        <ele>2562.05078125</ele>
        <time>2020-08-15T14:39:13Z</time>
      </trkpt>
      <trkpt lat="44.84651" lon="6.20093">
        <ele>2558.2055664062</ele>
        <time>2020-08-15T14:39:33Z</time>
      </trkpt>
      <trkpt lat="44.84651" lon="6.20094">
        <ele>2557.7250976562</ele>
        <time>2020-08-15T14:40:24Z</time>
      </trkpt>
      <trkpt lat="44.84646" lon="6.20085">
        <ele>2555.8020019531</ele>
        <time>2020-08-15T14:41:24Z</time>
      </trkpt>
      <trkpt lat="44.84635" lon="6.20071">
        <ele>2554.3601074219</ele>
        <time>2020-08-15T14:41:49Z</time>
      </trkpt>
      <trkpt lat="44.84625" lon="6.20061">
        <ele>2554.8408203125</ele>
        <time>2020-08-15T14:42:08Z</time>
      </trkpt>
      <trkpt lat="44.8462" lon="6.2006">
        <ele>2553.8796386719</ele>
        <time>2020-08-15T14:42:23Z</time>
      </trkpt>
      <trkpt lat="44.8462" lon="6.20072">
        <ele>2550.0344238281</ele>
        <time>2020-08-15T14:42:37Z</time>
      </trkpt>
      <trkpt lat="44.8462" lon="6.2009">
        <ele>2544.2663574219</ele>
        <time>2020-08-15T14:42:58Z</time>
      </trkpt>
      <trkpt lat="44.84621" lon="6.20107">
        <ele>2540.4211425781</ele>
        <time>2020-08-15T14:43:21Z</time>
      </trkpt>
      <trkpt lat="44.84619" lon="6.20111">
        <ele>2538.4985351562</ele>
        <time>2020-08-15T14:43:37Z</time>
      </trkpt>
      <trkpt lat="44.84616" lon="6.20101">
        <ele>2535.1337890625</ele>
        <time>2020-08-15T14:43:52Z</time>
      </trkpt>
      <trkpt lat="44.8461" lon="6.20092">
        <ele>2531.7692871094</ele>
        <time>2020-08-15T14:44:11Z</time>
      </trkpt>
      <trkpt lat="44.84609" lon="6.20088">
        <ele>2530.8081054688</ele>
        <time>2020-08-15T14:44:15Z</time>
      </trkpt>
      <trkpt lat="44.84604" lon="6.20086">
        <ele>2528.8852539062</ele>
        <time>2020-08-15T14:44:33Z</time>
      </trkpt>
      <trkpt lat="44.84602" lon="6.20101">
        <ele>2527.443359375</ele>
        <time>2020-08-15T14:44:51Z</time>
      </trkpt>
      <trkpt lat="44.84601" lon="6.20101">
        <ele>2528.4047851562</ele>
        <time>2020-08-15T14:45:33Z</time>
      </trkpt>
      <trkpt lat="44.84593" lon="6.20091">
        <ele>2526.4821777344</ele>
        <time>2020-08-15T14:48:25Z</time>
      </trkpt>
      <trkpt lat="44.84586" lon="6.20086">
        <ele>2522.1560058594</ele>
        <time>2020-08-15T14:48:51Z</time>
      </trkpt>
      <trkpt lat="44.84579" lon="6.20085">
        <ele>2518.3107910156</ele>
        <time>2020-08-15T14:49:11Z</time>
      </trkpt>
      <trkpt lat="44.84575" lon="6.20074">
        <ele>2515.4270019531</ele>
        <time>2020-08-15T14:49:31Z</time>
      </trkpt>
      <trkpt lat="44.84569" lon="6.20063">
        <ele>2510.1396484375</ele>
        <time>2020-08-15T14:49:52Z</time>
      </trkpt>
      <trkpt lat="44.84565" lon="6.20054">
        <ele>2506.7749023438</ele>
        <time>2020-08-15T14:50:08Z</time>
      </trkpt>
      <trkpt lat="44.8456" lon="6.20043">
        <ele>2503.4104003906</ele>
        <time>2020-08-15T14:50:23Z</time>
      </trkpt>
      <trkpt lat="44.84553" lon="6.20029">
        <ele>2500.5263671875</ele>
        <time>2020-08-15T14:50:41Z</time>
      </trkpt>
      <trkpt lat="44.84552" lon="6.20033">
        <ele>2500.0458984375</ele>
        <time>2020-08-15T14:50:57Z</time>
      </trkpt>
      <trkpt lat="44.8455" lon="6.20051">
        <ele>2498.123046875</ele>
        <time>2020-08-15T14:51:17Z</time>
      </trkpt>
      <trkpt lat="44.84549" lon="6.20066">
        <ele>2496.6811523438</ele>
        <time>2020-08-15T14:51:36Z</time>
      </trkpt>
      <trkpt lat="44.84547" lon="6.20072">
        <ele>2496.2006835938</ele>
        <time>2020-08-15T14:51:52Z</time>
      </trkpt>
      <trkpt lat="44.84541" lon="6.20083">
        <ele>2494.2778320312</ele>
        <time>2020-08-15T14:52:13Z</time>
      </trkpt>
      <trkpt lat="44.84538" lon="6.20097">
        <ele>2492.8359375</ele>
        <time>2020-08-15T14:52:31Z</time>
      </trkpt>
      <trkpt lat="44.84535" lon="6.20108">
        <ele>2488.9904785156</ele>
        <time>2020-08-15T14:52:52Z</time>
      </trkpt>
      <trkpt lat="44.84533" lon="6.20116">
        <ele>2488.029296875</ele>
        <time>2020-08-15T14:53:10Z</time>
      </trkpt>
      <trkpt lat="44.84531" lon="6.20124">
        <ele>2484.1840820312</ele>
        <time>2020-08-15T14:53:25Z</time>
      </trkpt>
      <trkpt lat="44.84529" lon="6.20133">
        <ele>2481.3000488281</ele>
        <time>2020-08-15T14:53:39Z</time>
      </trkpt>
      <trkpt lat="44.84526" lon="6.2014">
        <ele>2480.3388671875</ele>
        <time>2020-08-15T14:53:59Z</time>
      </trkpt>
      <trkpt lat="44.84526" lon="6.2014">
        <ele>2479.3774414062</ele>
        <time>2020-08-15T14:54:50Z</time>
      </trkpt>
      <trkpt lat="44.84528" lon="6.20142">
        <ele>2477.4548339844</ele>
        <time>2020-08-15T14:57:54Z</time>
      </trkpt>
      <trkpt lat="44.84526" lon="6.20147">
        <ele>2475.5319824219</ele>
        <time>2020-08-15T15:00:12Z</time>
      </trkpt>
      <trkpt lat="44.84525" lon="6.20155">
        <ele>2476.4936523438</ele>
        <time>2020-08-15T15:00:31Z</time>
      </trkpt>
      <trkpt lat="44.84523" lon="6.20169">
        <ele>2476.0129394531</ele>
        <time>2020-08-15T15:00:50Z</time>
      </trkpt>
      <trkpt lat="44.84519" lon="6.20188">
        <ele>2473.609375</ele>
        <time>2020-08-15T15:01:12Z</time>
      </trkpt>
      <trkpt lat="44.84518" lon="6.20188">
        <ele>2471.6867675781</ele>
        <time>2020-08-15T15:01:32Z</time>
      </trkpt>
      <trkpt lat="44.84512" lon="6.20178">
        <ele>2470.2448730469</ele>
        <time>2020-08-15T15:01:55Z</time>
      </trkpt>
      <trkpt lat="44.84509" lon="6.20171">
        <ele>2471.6867675781</ele>
        <time>2020-08-15T15:02:11Z</time>
      </trkpt>
      <trkpt lat="44.84503" lon="6.20161">
        <ele>2473.609375</ele>
        <time>2020-08-15T15:02:30Z</time>
      </trkpt>
      <trkpt lat="44.84499" lon="6.20147">
        <ele>2476.0129394531</ele>
        <time>2020-08-15T15:02:49Z</time>
      </trkpt>
      <trkpt lat="44.84496" lon="6.20141">
        <ele>2474.5708007812</ele>
        <time>2020-08-15T15:03:03Z</time>
      </trkpt>
      <trkpt lat="44.84494" lon="6.20136">
        <ele>2473.12890625</ele>
        <time>2020-08-15T15:03:26Z</time>
      </trkpt>
      <trkpt lat="44.84488" lon="6.20134">
        <ele>2469.7641601562</ele>
        <time>2020-08-15T15:03:46Z</time>
      </trkpt>
      <trkpt lat="44.84484" lon="6.20129">
        <ele>2466.8803710938</ele>
        <time>2020-08-15T15:04:05Z</time>
      </trkpt>
      <trkpt lat="44.84482" lon="6.20128">
        <ele>2464.9577636719</ele>
        <time>2020-08-15T15:04:26Z</time>
      </trkpt>
      <trkpt lat="44.84482" lon="6.20132">
        <ele>2461.5932617188</ele>
        <time>2020-08-15T15:04:55Z</time>
      </trkpt>
      <trkpt lat="44.84484" lon="6.20139">
        <ele>2456.7863769531</ele>
        <time>2020-08-15T15:05:15Z</time>
      </trkpt>
      <trkpt lat="44.84483" lon="6.20138">
        <ele>2455.8249511719</ele>
        <time>2020-08-15T15:05:37Z</time>
      </trkpt>
      <trkpt lat="44.84478" lon="6.20139">
        <ele>2452.9411621094</ele>
        <time>2020-08-15T15:06:51Z</time>
      </trkpt>
      <trkpt lat="44.84473" lon="6.20131">
        <ele>2450.0573730469</ele>
        <time>2020-08-15T15:07:13Z</time>
      </trkpt>
      <trkpt lat="44.84469" lon="6.20142">
        <ele>2448.615234375</ele>
        <time>2020-08-15T15:07:34Z</time>
      </trkpt>
      <trkpt lat="44.8447" lon="6.20147">
        <ele>2445.7314453125</ele>
        <time>2020-08-15T15:07:50Z</time>
      </trkpt>
      <trkpt lat="44.84467" lon="6.20146">
        <ele>2442.8471679688</ele>
        <time>2020-08-15T15:08:07Z</time>
      </trkpt>
      <trkpt lat="44.8446" lon="6.20136">
        <ele>2438.521484375</ele>
        <time>2020-08-15T15:08:34Z</time>
      </trkpt>
      <trkpt lat="44.84456" lon="6.20136">
        <ele>2436.5986328125</ele>
        <time>2020-08-15T15:08:48Z</time>
      </trkpt>
      <trkpt lat="44.84454" lon="6.20146">
        <ele>2433.2341308594</ele>
        <time>2020-08-15T15:09:09Z</time>
      </trkpt>
      <trkpt lat="44.84453" lon="6.20155">
        <ele>2432.7534179688</ele>
        <time>2020-08-15T15:09:24Z</time>
      </trkpt>
      <trkpt lat="44.84455" lon="6.20164">
        <ele>2431.3115234375</ele>
        <time>2020-08-15T15:09:43Z</time>
      </trkpt>
      <trkpt lat="44.84454" lon="6.20171">
        <ele>2429.8696289062</ele>
        <time>2020-08-15T15:09:59Z</time>
      </trkpt>
      <trkpt lat="44.84454" lon="6.20174">
        <ele>2428.427734375</ele>
        <time>2020-08-15T15:10:20Z</time>
      </trkpt>
      <trkpt lat="44.84454" lon="6.20179">
        <ele>2427.9467773438</ele>
        <time>2020-08-15T15:11:22Z</time>
      </trkpt>
      <trkpt lat="44.8445" lon="6.20189">
        <ele>2425.0627441406</ele>
        <time>2020-08-15T15:11:39Z</time>
      </trkpt>
      <trkpt lat="44.84448" lon="6.20204">
        <ele>2420.2563476562</ele>
        <time>2020-08-15T15:12:04Z</time>
      </trkpt>
      <trkpt lat="44.84445" lon="6.20219">
        <ele>2417.3723144531</ele>
        <time>2020-08-15T15:12:26Z</time>
      </trkpt>
      <trkpt lat="44.84445" lon="6.20226">
        <ele>2417.8530273438</ele>
        <time>2020-08-15T15:12:46Z</time>
      </trkpt>
      <trkpt lat="44.84446" lon="6.20231">
        <ele>2414.4885253906</ele>
        <time>2020-08-15T15:13:15Z</time>
      </trkpt>
      <trkpt lat="44.84445" lon="6.2023">
        <ele>2414.0078125</ele>
        <time>2020-08-15T15:15:08Z</time>
      </trkpt>
      <trkpt lat="44.8444" lon="6.20225">
        <ele>2414.4885253906</ele>
        <time>2020-08-15T15:16:01Z</time>
      </trkpt>
      <trkpt lat="44.84436" lon="6.20221">
        <ele>2413.5270996094</ele>
        <time>2020-08-15T15:16:20Z</time>
      </trkpt>
      <trkpt lat="44.84432" lon="6.20216">
        <ele>2412.0852050781</ele>
        <time>2020-08-15T15:16:47Z</time>
      </trkpt>
      <trkpt lat="44.84428" lon="6.20212">
        <ele>2411.6044921875</ele>
        <time>2020-08-15T15:17:07Z</time>
      </trkpt>
      <trkpt lat="44.84424" lon="6.20207">
        <ele>2409.681640625</ele>
        <time>2020-08-15T15:17:32Z</time>
      </trkpt>
      <trkpt lat="44.84421" lon="6.2021">
        <ele>2407.2785644531</ele>
        <time>2020-08-15T15:18:03Z</time>
      </trkpt>
      <trkpt lat="44.84421" lon="6.20215">
        <ele>2404.8752441406</ele>
        <time>2020-08-15T15:18:23Z</time>
      </trkpt>
      <trkpt lat="44.84422" lon="6.20222">
        <ele>2402.9526367188</ele>
        <time>2020-08-15T15:18:40Z</time>
      </trkpt>
      <trkpt lat="44.84423" lon="6.20229">
        <ele>2399.5881347656</ele>
        <time>2020-08-15T15:19:05Z</time>
      </trkpt>
      <trkpt lat="44.84421" lon="6.2023">
        <ele>2396.2236328125</ele>
        <time>2020-08-15T15:20:45Z</time>
      </trkpt>
      <trkpt lat="44.84413" lon="6.20224">
        <ele>2393.8200683594</ele>
        <time>2020-08-15T15:21:07Z</time>
      </trkpt>
      <trkpt lat="44.84403" lon="6.20213">
        <ele>2390.4553222656</ele>
        <time>2020-08-15T15:21:29Z</time>
      </trkpt>
      <trkpt lat="44.84398" lon="6.20206">
        <ele>2388.5329589844</ele>
        <time>2020-08-15T15:21:47Z</time>
      </trkpt>
      <trkpt lat="44.84393" lon="6.20203">
        <ele>2387.5715332031</ele>
        <time>2020-08-15T15:22:03Z</time>
      </trkpt>
      <trkpt lat="44.8439" lon="6.20197">
        <ele>2386.6101074219</ele>
        <time>2020-08-15T15:22:22Z</time>
      </trkpt>
      <trkpt lat="44.84385" lon="6.20188">
        <ele>2385.6489257812</ele>
        <time>2020-08-15T15:22:41Z</time>
      </trkpt>
      <trkpt lat="44.84382" lon="6.20194">
        <ele>2384.6877441406</ele>
        <time>2020-08-15T15:23:01Z</time>
      </trkpt>
      <trkpt lat="44.84383" lon="6.20205">
        <ele>2383.2456054688</ele>
        <time>2020-08-15T15:23:23Z</time>
      </trkpt>
      <trkpt lat="44.84385" lon="6.20223">
        <ele>2380.3618164062</ele>
        <time>2020-08-15T15:23:50Z</time>
      </trkpt>
      <trkpt lat="44.84386" lon="6.20228">
        <ele>2379.4001464844</ele>
        <time>2020-08-15T15:23:53Z</time>
      </trkpt>
      <trkpt lat="44.84389" lon="6.20252">
        <ele>2378.4389648438</ele>
        <time>2020-08-15T15:24:16Z</time>
      </trkpt>
      <trkpt lat="44.84391" lon="6.20264">
        <ele>2377.9582519531</ele>
        <time>2020-08-15T15:24:33Z</time>
      </trkpt>
      <trkpt lat="44.84391" lon="6.20288">
        <ele>2376.0356445312</ele>
        <time>2020-08-15T15:24:59Z</time>
      </trkpt>
      <trkpt lat="44.8439" lon="6.20295">
        <ele>2376.0356445312</ele>
        <time>2020-08-15T15:25:15Z</time>
      </trkpt>
      <trkpt lat="44.84394" lon="6.20313">
        <ele>2375.07421875</ele>
        <time>2020-08-15T15:25:32Z</time>
      </trkpt>
      <trkpt lat="44.84396" lon="6.2032">
        <ele>2374.59375</ele>
        <time>2020-08-15T15:25:49Z</time>
      </trkpt>
      <trkpt lat="44.84396" lon="6.20331">
        <ele>2372.6711425781</ele>
        <time>2020-08-15T15:26:07Z</time>
      </trkpt>
      <trkpt lat="44.84396" lon="6.20347">
        <ele>2370.7485351562</ele>
        <time>2020-08-15T15:26:27Z</time>
      </trkpt>
      <trkpt lat="44.84396" lon="6.20361">
        <ele>2370.2678222656</ele>
        <time>2020-08-15T15:26:50Z</time>
      </trkpt>
      <trkpt lat="44.84399" lon="6.20377">
        <ele>2367.8645019531</ele>
        <time>2020-08-15T15:27:13Z</time>
      </trkpt>
      <trkpt lat="44.84402" lon="6.20391">
        <ele>2366.9033203125</ele>
        <time>2020-08-15T15:27:32Z</time>
      </trkpt>
      <trkpt lat="44.84403" lon="6.20401">
        <ele>2369.787109375</ele>
        <time>2020-08-15T15:27:51Z</time>
      </trkpt>
      <trkpt lat="44.84402" lon="6.20401">
        <ele>2368.8259277344</ele>
        <time>2020-08-15T15:28:11Z</time>
      </trkpt>
      <trkpt lat="44.84398" lon="6.20395">
        <ele>2369.306640625</ele>
        <time>2020-08-15T15:28:24Z</time>
      </trkpt>
      <trkpt lat="44.84391" lon="6.20392">
        <ele>2370.7485351562</ele>
        <time>2020-08-15T15:28:46Z</time>
      </trkpt>
      <trkpt lat="44.84377" lon="6.20401">
        <ele>2367.3837890625</ele>
        <time>2020-08-15T15:29:08Z</time>
      </trkpt>
      <trkpt lat="44.84368" lon="6.20408">
        <ele>2364.0192871094</ele>
        <time>2020-08-15T15:29:33Z</time>
      </trkpt>
      <trkpt lat="44.84364" lon="6.20412">
        <ele>2364.0192871094</ele>
        <time>2020-08-15T15:29:51Z</time>
      </trkpt>
      <trkpt lat="44.84355" lon="6.20411">
        <ele>2361.1352539062</ele>
        <time>2020-08-15T15:30:14Z</time>
      </trkpt>
      <trkpt lat="44.8435" lon="6.20408">
        <ele>2360.173828125</ele>
        <time>2020-08-15T15:30:35Z</time>
      </trkpt>
      <trkpt lat="44.84339" lon="6.20405">
        <ele>2360.173828125</ele>
        <time>2020-08-15T15:30:55Z</time>
      </trkpt>
      <trkpt lat="44.84339" lon="6.20406">
        <ele>2360.173828125</ele>
        <time>2020-08-15T15:31:18Z</time>
      </trkpt>
      <trkpt lat="44.84337" lon="6.20411">
        <ele>2360.6545410156</ele>
        <time>2020-08-15T15:31:35Z</time>
      </trkpt>
      <trkpt lat="44.84336" lon="6.20414">
        <ele>2361.1352539062</ele>
        <time>2020-08-15T15:31:51Z</time>
      </trkpt>
      <trkpt lat="44.84329" lon="6.2042">
        <ele>2359.6931152344</ele>
        <time>2020-08-15T15:32:08Z</time>
      </trkpt>
      <trkpt lat="44.84324" lon="6.20423">
        <ele>2359.6931152344</ele>
        <time>2020-08-15T15:32:26Z</time>
      </trkpt>
      <trkpt lat="44.8432" lon="6.20423">
        <ele>2359.6931152344</ele>
        <time>2020-08-15T15:32:52Z</time>
      </trkpt>
      <trkpt lat="44.84319" lon="6.20418">
        <ele>2360.173828125</ele>
        <time>2020-08-15T15:33:10Z</time>
      </trkpt>
      <trkpt lat="44.84308" lon="6.20416">
        <ele>2359.6931152344</ele>
        <time>2020-08-15T15:33:29Z</time>
      </trkpt>
      <trkpt lat="44.84293" lon="6.20414">
        <ele>2358.2512207031</ele>
        <time>2020-08-15T15:33:51Z</time>
      </trkpt>
      <trkpt lat="44.84285" lon="6.20417">
        <ele>2356.3286132812</ele>
        <time>2020-08-15T15:34:07Z</time>
      </trkpt>
      <trkpt lat="44.84278" lon="6.20422">
        <ele>2358.2512207031</ele>
        <time>2020-08-15T15:34:25Z</time>
      </trkpt>
      <trkpt lat="44.84267" lon="6.20423">
        <ele>2356.3286132812</ele>
        <time>2020-08-15T15:34:40Z</time>
      </trkpt>
      <trkpt lat="44.84259" lon="6.20427">
        <ele>2353.9255371094</ele>
        <time>2020-08-15T15:34:53Z</time>
      </trkpt>
      <trkpt lat="44.84248" lon="6.20427">
        <ele>2352.0026855469</ele>
        <time>2020-08-15T15:35:09Z</time>
      </trkpt>
      <trkpt lat="44.84232" lon="6.20426">
        <ele>2348.6381835938</ele>
        <time>2020-08-15T15:35:28Z</time>
      </trkpt>
      <trkpt lat="44.84221" lon="6.20424">
        <ele>2347.1960449219</ele>
        <time>2020-08-15T15:35:46Z</time>
      </trkpt>
      <trkpt lat="44.84211" lon="6.20423">
        <ele>2347.6767578125</ele>
        <time>2020-08-15T15:36:05Z</time>
      </trkpt>
      <trkpt lat="44.84211" lon="6.20428">
        <ele>2350.5607910156</ele>
        <time>2020-08-15T15:36:21Z</time>
      </trkpt>
      <trkpt lat="44.8421" lon="6.2043">
        <ele>2350.5607910156</ele>
        <time>2020-08-15T15:37:26Z</time>
      </trkpt>
      <trkpt lat="44.84212" lon="6.20435">
        <ele>2351.0415039062</ele>
        <time>2020-08-15T15:37:39Z</time>
      </trkpt>
      <trkpt lat="44.84222" lon="6.20444">
        <ele>2353.4448242188</ele>
        <time>2020-08-15T15:37:57Z</time>
      </trkpt>
      <trkpt lat="44.84211" lon="6.20449">
        <ele>2353.4448242188</ele>
        <time>2020-08-15T15:38:17Z</time>
      </trkpt>
      <trkpt lat="44.84199" lon="6.20443">
        <ele>2353.4448242188</ele>
        <time>2020-08-15T15:38:35Z</time>
      </trkpt>
      <trkpt lat="44.84183" lon="6.20439">
        <ele>2352.9641113281</ele>
        <time>2020-08-15T15:38:59Z</time>
      </trkpt>
      <trkpt lat="44.84168" lon="6.20437">
        <ele>2354.4060058594</ele>
        <time>2020-08-15T15:39:24Z</time>
      </trkpt>
      <trkpt lat="44.84158" lon="6.20436">
        <ele>2354.88671875</ele>
        <time>2020-08-15T15:39:47Z</time>
      </trkpt>
      <trkpt lat="44.84155" lon="6.20431">
        <ele>2355.3674316406</ele>
        <time>2020-08-15T15:40:06Z</time>
      </trkpt>
      <trkpt lat="44.8415" lon="6.20428">
        <ele>2352.0026855469</ele>
        <time>2020-08-15T15:40:27Z</time>
      </trkpt>
      <trkpt lat="44.84147" lon="6.20435">
        <ele>2347.6767578125</ele>
        <time>2020-08-15T15:40:42Z</time>
      </trkpt>
      <trkpt lat="44.84146" lon="6.20443">
        <ele>2347.1960449219</ele>
        <time>2020-08-15T15:40:59Z</time>
      </trkpt>
      <trkpt lat="44.84146" lon="6.20444">
        <ele>2348.1574707031</ele>
        <time>2020-08-15T15:41:32Z</time>
      </trkpt>
      <trkpt lat="44.84147" lon="6.20443">
        <ele>2345.2734375</ele>
        <time>2020-08-15T15:56:44Z</time>
      </trkpt>
      <trkpt lat="44.84139" lon="6.20454">
        <ele>2345.2734375</ele>
        <time>2020-08-15T15:56:48Z</time>
      </trkpt>
    </trkseg>
  </trk>
</gpx>